<?xml version="1.0" encoding="UTF-8" standalone="no" ?>
<gpx xmlns="http://www.topografix.com/GPX/1/1" xmlns:xsi="http://www.w3.org/2001/XMLSchema-instance" xsi:schemaLocation="http://www.topografix.com/GPX/1/1 http://www.topografix.com/GPX/1/1/gpx.xsd" version="1.1" creator="VisuGPX - https://www.visugpx.com">
  <metadata>
    <name>La Boucle de Maine Moulin (2015-06-19)</name>
    <desc><![CDATA[La Boucle de Maine Moulin (2015-06-19)]]></desc>
  </metadata>
  <trk>
    <name><![CDATA[Tracé actuel: 19 JUIN 2015 15:10]]></name>
    <trkseg>
      <trkpt lat="45.10139" lon="0.38429">
        <ele>112.13</ele>
        <time>2015-06-19T13:10:25Z</time>
      </trkpt>
      <trkpt lat="45.10139" lon="0.3843">
        <ele>112.13</ele>
        <time>2015-06-19T13:10:27Z</time>
      </trkpt>
      <trkpt lat="45.10139" lon="0.3843">
        <ele>77.04</ele>
        <time>2015-06-19T13:10:30Z</time>
      </trkpt>
      <trkpt lat="45.10139" lon="0.38431">
        <ele>75.6</ele>
        <time>2015-06-19T13:10:52Z</time>
      </trkpt>
      <trkpt lat="45.10139" lon="0.38432">
        <ele>75.6</ele>
        <time>2015-06-19T13:11:17Z</time>
      </trkpt>
      <trkpt lat="45.10138" lon="0.3843">
        <ele>75.12</ele>
        <time>2015-06-19T13:11:49Z</time>
      </trkpt>
      <trkpt lat="45.10143" lon="0.38437">
        <ele>74.16</ele>
        <time>2015-06-19T13:12:01Z</time>
      </trkpt>
      <trkpt lat="45.10147" lon="0.38437">
        <ele>74.16</ele>
        <time>2015-06-19T13:12:05Z</time>
      </trkpt>
      <trkpt lat="45.10172" lon="0.38442">
        <ele>72.24</ele>
        <time>2015-06-19T13:12:27Z</time>
      </trkpt>
      <trkpt lat="45.10187" lon="0.38447">
        <ele>73.68</ele>
        <time>2015-06-19T13:12:41Z</time>
      </trkpt>
      <trkpt lat="45.10195" lon="0.38455">
        <ele>74.64</ele>
        <time>2015-06-19T13:12:51Z</time>
      </trkpt>
      <trkpt lat="45.10199" lon="0.38459">
        <ele>74.64</ele>
        <time>2015-06-19T13:12:56Z</time>
      </trkpt>
      <trkpt lat="45.10215" lon="0.38464">
        <ele>74.64</ele>
        <time>2015-06-19T13:13:11Z</time>
      </trkpt>
      <trkpt lat="45.10217" lon="0.38465">
        <ele>74.64</ele>
        <time>2015-06-19T13:13:12Z</time>
      </trkpt>
      <trkpt lat="45.10223" lon="0.38464">
        <ele>74.64</ele>
        <time>2015-06-19T13:13:17Z</time>
      </trkpt>
      <trkpt lat="45.10241" lon="0.38463">
        <ele>74.64</ele>
        <time>2015-06-19T13:13:33Z</time>
      </trkpt>
      <trkpt lat="45.10262" lon="0.38464">
        <ele>74.64</ele>
        <time>2015-06-19T13:13:50Z</time>
      </trkpt>
      <trkpt lat="45.10267" lon="0.38464">
        <ele>74.64</ele>
        <time>2015-06-19T13:13:54Z</time>
      </trkpt>
      <trkpt lat="45.10285" lon="0.38463">
        <ele>74.64</ele>
        <time>2015-06-19T13:14:11Z</time>
      </trkpt>
      <trkpt lat="45.10286" lon="0.38463">
        <ele>74.64</ele>
        <time>2015-06-19T13:14:26Z</time>
      </trkpt>
      <trkpt lat="45.10287" lon="0.38464">
        <ele>74.64</ele>
        <time>2015-06-19T13:14:50Z</time>
      </trkpt>
      <trkpt lat="45.10287" lon="0.38464">
        <ele>74.64</ele>
        <time>2015-06-19T13:15:21Z</time>
      </trkpt>
      <trkpt lat="45.10291" lon="0.38468">
        <ele>75.12</ele>
        <time>2015-06-19T13:15:54Z</time>
      </trkpt>
      <trkpt lat="45.10285" lon="0.38465">
        <ele>75.12</ele>
        <time>2015-06-19T13:16:09Z</time>
      </trkpt>
      <trkpt lat="45.10291" lon="0.38464">
        <ele>75.12</ele>
        <time>2015-06-19T13:16:18Z</time>
      </trkpt>
      <trkpt lat="45.10308" lon="0.38452">
        <ele>76.08</ele>
        <time>2015-06-19T13:16:37Z</time>
      </trkpt>
      <trkpt lat="45.10322" lon="0.38443">
        <ele>76.56</ele>
        <time>2015-06-19T13:16:51Z</time>
      </trkpt>
      <trkpt lat="45.10338" lon="0.38434">
        <ele>77.52</ele>
        <time>2015-06-19T13:17:08Z</time>
      </trkpt>
      <trkpt lat="45.10346" lon="0.38429">
        <ele>77.52</ele>
        <time>2015-06-19T13:17:17Z</time>
      </trkpt>
      <trkpt lat="45.10356" lon="0.38422">
        <ele>77.52</ele>
        <time>2015-06-19T13:17:29Z</time>
      </trkpt>
      <trkpt lat="45.10365" lon="0.38415">
        <ele>78</ele>
        <time>2015-06-19T13:17:39Z</time>
      </trkpt>
      <trkpt lat="45.10375" lon="0.38412">
        <ele>78</ele>
        <time>2015-06-19T13:17:52Z</time>
      </trkpt>
      <trkpt lat="45.10376" lon="0.38412">
        <ele>78</ele>
        <time>2015-06-19T13:17:53Z</time>
      </trkpt>
      <trkpt lat="45.10379" lon="0.38411">
        <ele>78</ele>
        <time>2015-06-19T13:17:56Z</time>
      </trkpt>
      <trkpt lat="45.10394" lon="0.38395">
        <ele>78.97</ele>
        <time>2015-06-19T13:18:13Z</time>
      </trkpt>
      <trkpt lat="45.10409" lon="0.38384">
        <ele>79.93</ele>
        <time>2015-06-19T13:18:30Z</time>
      </trkpt>
      <trkpt lat="45.10426" lon="0.38377">
        <ele>79.93</ele>
        <time>2015-06-19T13:18:45Z</time>
      </trkpt>
      <trkpt lat="45.10433" lon="0.38371">
        <ele>81.37</ele>
        <time>2015-06-19T13:18:59Z</time>
      </trkpt>
      <trkpt lat="45.10433" lon="0.38371">
        <ele>81.85</ele>
        <time>2015-06-19T13:19:16Z</time>
      </trkpt>
      <trkpt lat="45.10434" lon="0.38369">
        <ele>81.85</ele>
        <time>2015-06-19T13:19:30Z</time>
      </trkpt>
      <trkpt lat="45.10434" lon="0.38368">
        <ele>80.41</ele>
        <time>2015-06-19T13:19:34Z</time>
      </trkpt>
      <trkpt lat="45.10432" lon="0.3837">
        <ele>81.85</ele>
        <time>2015-06-19T13:19:48Z</time>
      </trkpt>
      <trkpt lat="45.10434" lon="0.38368">
        <ele>81.37</ele>
        <time>2015-06-19T13:20:11Z</time>
      </trkpt>
      <trkpt lat="45.10436" lon="0.3837">
        <ele>81.37</ele>
        <time>2015-06-19T13:20:37Z</time>
      </trkpt>
      <trkpt lat="45.10436" lon="0.38364">
        <ele>81.37</ele>
        <time>2015-06-19T13:20:59Z</time>
      </trkpt>
      <trkpt lat="45.10435" lon="0.38365">
        <ele>80.89</ele>
        <time>2015-06-19T13:21:08Z</time>
      </trkpt>
      <trkpt lat="45.1044" lon="0.38368">
        <ele>78.48</ele>
        <time>2015-06-19T13:21:11Z</time>
      </trkpt>
      <trkpt lat="45.10445" lon="0.38367">
        <ele>78.48</ele>
        <time>2015-06-19T13:21:23Z</time>
      </trkpt>
      <trkpt lat="45.10458" lon="0.3836">
        <ele>78.48</ele>
        <time>2015-06-19T13:21:37Z</time>
      </trkpt>
      <trkpt lat="45.10469" lon="0.38355">
        <ele>78.48</ele>
        <time>2015-06-19T13:21:46Z</time>
      </trkpt>
      <trkpt lat="45.10473" lon="0.38352">
        <ele>78.48</ele>
        <time>2015-06-19T13:21:51Z</time>
      </trkpt>
      <trkpt lat="45.10492" lon="0.38345">
        <ele>78.48</ele>
        <time>2015-06-19T13:22:07Z</time>
      </trkpt>
      <trkpt lat="45.10503" lon="0.38341">
        <ele>78.48</ele>
        <time>2015-06-19T13:22:18Z</time>
      </trkpt>
      <trkpt lat="45.10505" lon="0.3834">
        <ele>78</ele>
        <time>2015-06-19T13:22:22Z</time>
      </trkpt>
      <trkpt lat="45.10513" lon="0.38339">
        <ele>78</ele>
        <time>2015-06-19T13:22:28Z</time>
      </trkpt>
      <trkpt lat="45.10519" lon="0.38336">
        <ele>78</ele>
        <time>2015-06-19T13:22:34Z</time>
      </trkpt>
      <trkpt lat="45.10536" lon="0.38333">
        <ele>78</ele>
        <time>2015-06-19T13:22:48Z</time>
      </trkpt>
      <trkpt lat="45.10535" lon="0.38332">
        <ele>78</ele>
        <time>2015-06-19T13:22:50Z</time>
      </trkpt>
      <trkpt lat="45.10549" lon="0.38329">
        <ele>79.93</ele>
        <time>2015-06-19T13:23:06Z</time>
      </trkpt>
      <trkpt lat="45.10569" lon="0.38322">
        <ele>79.45</ele>
        <time>2015-06-19T13:23:23Z</time>
      </trkpt>
      <trkpt lat="45.10592" lon="0.38319">
        <ele>79.93</ele>
        <time>2015-06-19T13:23:38Z</time>
      </trkpt>
      <trkpt lat="45.10613" lon="0.3832">
        <ele>80.41</ele>
        <time>2015-06-19T13:23:55Z</time>
      </trkpt>
      <trkpt lat="45.10618" lon="0.3832">
        <ele>80.41</ele>
        <time>2015-06-19T13:24:00Z</time>
      </trkpt>
      <trkpt lat="45.10623" lon="0.3832">
        <ele>80.41</ele>
        <time>2015-06-19T13:24:05Z</time>
      </trkpt>
      <trkpt lat="45.10635" lon="0.38323">
        <ele>80.41</ele>
        <time>2015-06-19T13:24:17Z</time>
      </trkpt>
      <trkpt lat="45.1064" lon="0.38323">
        <ele>80.41</ele>
        <time>2015-06-19T13:24:22Z</time>
      </trkpt>
      <trkpt lat="45.10645" lon="0.38322">
        <ele>80.41</ele>
        <time>2015-06-19T13:24:27Z</time>
      </trkpt>
      <trkpt lat="45.1065" lon="0.38324">
        <ele>80.41</ele>
        <time>2015-06-19T13:24:33Z</time>
      </trkpt>
      <trkpt lat="45.10664" lon="0.38325">
        <ele>79.45</ele>
        <time>2015-06-19T13:24:47Z</time>
      </trkpt>
      <trkpt lat="45.10671" lon="0.38325">
        <ele>79.45</ele>
        <time>2015-06-19T13:24:53Z</time>
      </trkpt>
      <trkpt lat="45.10673" lon="0.38325">
        <ele>79.45</ele>
        <time>2015-06-19T13:24:55Z</time>
      </trkpt>
      <trkpt lat="45.10693" lon="0.38328">
        <ele>80.41</ele>
        <time>2015-06-19T13:25:12Z</time>
      </trkpt>
      <trkpt lat="45.10714" lon="0.38327">
        <ele>80.41</ele>
        <time>2015-06-19T13:25:30Z</time>
      </trkpt>
      <trkpt lat="45.1072" lon="0.38326">
        <ele>76.56</ele>
        <time>2015-06-19T13:25:36Z</time>
      </trkpt>
      <trkpt lat="45.10722" lon="0.38326">
        <ele>80.41</ele>
        <time>2015-06-19T13:25:37Z</time>
      </trkpt>
      <trkpt lat="45.10739" lon="0.38323">
        <ele>79.45</ele>
        <time>2015-06-19T13:25:52Z</time>
      </trkpt>
      <trkpt lat="45.1074" lon="0.38323">
        <ele>79.45</ele>
        <time>2015-06-19T13:25:53Z</time>
      </trkpt>
      <trkpt lat="45.10741" lon="0.38319">
        <ele>80.89</ele>
        <time>2015-06-19T13:25:58Z</time>
      </trkpt>
      <trkpt lat="45.10742" lon="0.38318">
        <ele>80.89</ele>
        <time>2015-06-19T13:26:19Z</time>
      </trkpt>
      <trkpt lat="45.1074" lon="0.38317">
        <ele>80.89</ele>
        <time>2015-06-19T13:26:52Z</time>
      </trkpt>
      <trkpt lat="45.1074" lon="0.38323">
        <ele>80.89</ele>
        <time>2015-06-19T13:27:12Z</time>
      </trkpt>
      <trkpt lat="45.10741" lon="0.38328">
        <ele>80.89</ele>
        <time>2015-06-19T13:27:37Z</time>
      </trkpt>
      <trkpt lat="45.10743" lon="0.38323">
        <ele>80.89</ele>
        <time>2015-06-19T13:28:04Z</time>
      </trkpt>
      <trkpt lat="45.10744" lon="0.38323">
        <ele>80.89</ele>
        <time>2015-06-19T13:28:07Z</time>
      </trkpt>
      <trkpt lat="45.10746" lon="0.38325">
        <ele>78.97</ele>
        <time>2015-06-19T13:28:09Z</time>
      </trkpt>
      <trkpt lat="45.10746" lon="0.38325">
        <ele>78.97</ele>
        <time>2015-06-19T13:28:22Z</time>
      </trkpt>
      <trkpt lat="45.10742" lon="0.38326">
        <ele>79.45</ele>
        <time>2015-06-19T13:28:51Z</time>
      </trkpt>
      <trkpt lat="45.10745" lon="0.38324">
        <ele>78.97</ele>
        <time>2015-06-19T13:29:07Z</time>
      </trkpt>
      <trkpt lat="45.10741" lon="0.38331">
        <ele>78.97</ele>
        <time>2015-06-19T13:29:32Z</time>
      </trkpt>
      <trkpt lat="45.10746" lon="0.38324">
        <ele>78.97</ele>
        <time>2015-06-19T13:29:49Z</time>
      </trkpt>
      <trkpt lat="45.10753" lon="0.38325">
        <ele>80.41</ele>
        <time>2015-06-19T13:30:08Z</time>
      </trkpt>
      <trkpt lat="45.10754" lon="0.38328">
        <ele>80.41</ele>
        <time>2015-06-19T13:30:38Z</time>
      </trkpt>
      <trkpt lat="45.1075" lon="0.38326">
        <ele>80.89</ele>
        <time>2015-06-19T13:31:06Z</time>
      </trkpt>
      <trkpt lat="45.10748" lon="0.38327">
        <ele>80.89</ele>
        <time>2015-06-19T13:31:24Z</time>
      </trkpt>
      <trkpt lat="45.10749" lon="0.38327">
        <ele>80.89</ele>
        <time>2015-06-19T13:31:51Z</time>
      </trkpt>
      <trkpt lat="45.10757" lon="0.38324">
        <ele>80.89</ele>
        <time>2015-06-19T13:32:01Z</time>
      </trkpt>
      <trkpt lat="45.10774" lon="0.38316">
        <ele>80.89</ele>
        <time>2015-06-19T13:32:16Z</time>
      </trkpt>
      <trkpt lat="45.10785" lon="0.38313">
        <ele>80.89</ele>
        <time>2015-06-19T13:32:30Z</time>
      </trkpt>
      <trkpt lat="45.10789" lon="0.38308">
        <ele>80.89</ele>
        <time>2015-06-19T13:32:46Z</time>
      </trkpt>
      <trkpt lat="45.10794" lon="0.3831">
        <ele>80.89</ele>
        <time>2015-06-19T13:33:00Z</time>
      </trkpt>
      <trkpt lat="45.10797" lon="0.3831">
        <ele>80.89</ele>
        <time>2015-06-19T13:33:04Z</time>
      </trkpt>
      <trkpt lat="45.10802" lon="0.38311">
        <ele>80.89</ele>
        <time>2015-06-19T13:33:09Z</time>
      </trkpt>
      <trkpt lat="45.10808" lon="0.38311">
        <ele>78.97</ele>
        <time>2015-06-19T13:33:14Z</time>
      </trkpt>
      <trkpt lat="45.10812" lon="0.38311">
        <ele>78.97</ele>
        <time>2015-06-19T13:33:17Z</time>
      </trkpt>
      <trkpt lat="45.10817" lon="0.38312">
        <ele>78.97</ele>
        <time>2015-06-19T13:33:21Z</time>
      </trkpt>
      <trkpt lat="45.10821" lon="0.3831">
        <ele>80.41</ele>
        <time>2015-06-19T13:33:26Z</time>
      </trkpt>
      <trkpt lat="45.10824" lon="0.38311">
        <ele>80.41</ele>
        <time>2015-06-19T13:33:29Z</time>
      </trkpt>
      <trkpt lat="45.10836" lon="0.38314">
        <ele>80.41</ele>
        <time>2015-06-19T13:33:43Z</time>
      </trkpt>
      <trkpt lat="45.10839" lon="0.38313">
        <ele>80.41</ele>
        <time>2015-06-19T13:33:47Z</time>
      </trkpt>
      <trkpt lat="45.10847" lon="0.38311">
        <ele>79.93</ele>
        <time>2015-06-19T13:33:57Z</time>
      </trkpt>
      <trkpt lat="45.10849" lon="0.38309">
        <ele>79.93</ele>
        <time>2015-06-19T13:34:05Z</time>
      </trkpt>
      <trkpt lat="45.10853" lon="0.3831">
        <ele>79.93</ele>
        <time>2015-06-19T13:34:09Z</time>
      </trkpt>
      <trkpt lat="45.10856" lon="0.38309">
        <ele>79.93</ele>
        <time>2015-06-19T13:34:12Z</time>
      </trkpt>
      <trkpt lat="45.1087" lon="0.38313">
        <ele>80.41</ele>
        <time>2015-06-19T13:34:29Z</time>
      </trkpt>
      <trkpt lat="45.10877" lon="0.38311">
        <ele>80.41</ele>
        <time>2015-06-19T13:34:41Z</time>
      </trkpt>
      <trkpt lat="45.10882" lon="0.38296">
        <ele>80.89</ele>
        <time>2015-06-19T13:34:59Z</time>
      </trkpt>
      <trkpt lat="45.10882" lon="0.38294">
        <ele>80.89</ele>
        <time>2015-06-19T13:35:00Z</time>
      </trkpt>
      <trkpt lat="45.10886" lon="0.3828">
        <ele>81.85</ele>
        <time>2015-06-19T13:35:10Z</time>
      </trkpt>
      <trkpt lat="45.10887" lon="0.3826">
        <ele>82.81</ele>
        <time>2015-06-19T13:35:24Z</time>
      </trkpt>
      <trkpt lat="45.10884" lon="0.38255">
        <ele>84.73</ele>
        <time>2015-06-19T13:35:41Z</time>
      </trkpt>
      <trkpt lat="45.10885" lon="0.38256">
        <ele>84.73</ele>
        <time>2015-06-19T13:36:12Z</time>
      </trkpt>
      <trkpt lat="45.10886" lon="0.38261">
        <ele>84.25</ele>
        <time>2015-06-19T13:36:36Z</time>
      </trkpt>
      <trkpt lat="45.10885" lon="0.38266">
        <ele>82.33</ele>
        <time>2015-06-19T13:37:02Z</time>
      </trkpt>
      <trkpt lat="45.10885" lon="0.38267">
        <ele>84.25</ele>
        <time>2015-06-19T13:37:34Z</time>
      </trkpt>
      <trkpt lat="45.10883" lon="0.38257">
        <ele>84.25</ele>
        <time>2015-06-19T13:38:03Z</time>
      </trkpt>
      <trkpt lat="45.10885" lon="0.38254">
        <ele>84.25</ele>
        <time>2015-06-19T13:38:08Z</time>
      </trkpt>
      <trkpt lat="45.10887" lon="0.38255">
        <ele>82.33</ele>
        <time>2015-06-19T13:38:10Z</time>
      </trkpt>
      <trkpt lat="45.10885" lon="0.38257">
        <ele>81.85</ele>
        <time>2015-06-19T13:38:29Z</time>
      </trkpt>
      <trkpt lat="45.10889" lon="0.3825">
        <ele>81.85</ele>
        <time>2015-06-19T13:38:35Z</time>
      </trkpt>
      <trkpt lat="45.10897" lon="0.38243">
        <ele>83.29</ele>
        <time>2015-06-19T13:38:44Z</time>
      </trkpt>
      <trkpt lat="45.10905" lon="0.3823">
        <ele>84.25</ele>
        <time>2015-06-19T13:38:58Z</time>
      </trkpt>
      <trkpt lat="45.10912" lon="0.38217">
        <ele>85.21</ele>
        <time>2015-06-19T13:39:12Z</time>
      </trkpt>
      <trkpt lat="45.10918" lon="0.38208">
        <ele>86.18</ele>
        <time>2015-06-19T13:39:23Z</time>
      </trkpt>
      <trkpt lat="45.10927" lon="0.38195">
        <ele>87.62</ele>
        <time>2015-06-19T13:39:34Z</time>
      </trkpt>
      <trkpt lat="45.10934" lon="0.38172">
        <ele>87.62</ele>
        <time>2015-06-19T13:39:50Z</time>
      </trkpt>
      <trkpt lat="45.10935" lon="0.38166">
        <ele>87.62</ele>
        <time>2015-06-19T13:39:53Z</time>
      </trkpt>
      <trkpt lat="45.10953" lon="0.38144">
        <ele>87.62</ele>
        <time>2015-06-19T13:40:10Z</time>
      </trkpt>
      <trkpt lat="45.10965" lon="0.38127">
        <ele>88.1</ele>
        <time>2015-06-19T13:40:27Z</time>
      </trkpt>
      <trkpt lat="45.10965" lon="0.38129">
        <ele>88.1</ele>
        <time>2015-06-19T13:40:40Z</time>
      </trkpt>
      <trkpt lat="45.10964" lon="0.38127">
        <ele>88.1</ele>
        <time>2015-06-19T13:40:55Z</time>
      </trkpt>
      <trkpt lat="45.10972" lon="0.38121">
        <ele>88.1</ele>
        <time>2015-06-19T13:41:03Z</time>
      </trkpt>
      <trkpt lat="45.1098" lon="0.3811">
        <ele>88.58</ele>
        <time>2015-06-19T13:41:14Z</time>
      </trkpt>
      <trkpt lat="45.10985" lon="0.38089">
        <ele>89.54</ele>
        <time>2015-06-19T13:41:30Z</time>
      </trkpt>
      <trkpt lat="45.10981" lon="0.38076">
        <ele>90.98</ele>
        <time>2015-06-19T13:41:45Z</time>
      </trkpt>
      <trkpt lat="45.10974" lon="0.38069">
        <ele>91.94</ele>
        <time>2015-06-19T13:41:58Z</time>
      </trkpt>
      <trkpt lat="45.10968" lon="0.38071">
        <ele>91.94</ele>
        <time>2015-06-19T13:42:08Z</time>
      </trkpt>
      <trkpt lat="45.10963" lon="0.3807">
        <ele>90.02</ele>
        <time>2015-06-19T13:42:21Z</time>
      </trkpt>
      <trkpt lat="45.10962" lon="0.38068">
        <ele>90.02</ele>
        <time>2015-06-19T13:42:49Z</time>
      </trkpt>
      <trkpt lat="45.10961" lon="0.3807">
        <ele>89.54</ele>
        <time>2015-06-19T13:43:18Z</time>
      </trkpt>
      <trkpt lat="45.10961" lon="0.38072">
        <ele>89.54</ele>
        <time>2015-06-19T13:43:54Z</time>
      </trkpt>
      <trkpt lat="45.10961" lon="0.38076">
        <ele>90.5</ele>
        <time>2015-06-19T13:44:26Z</time>
      </trkpt>
      <trkpt lat="45.10952" lon="0.38075">
        <ele>90.5</ele>
        <time>2015-06-19T13:44:55Z</time>
      </trkpt>
      <trkpt lat="45.1096" lon="0.38074">
        <ele>90.5</ele>
        <time>2015-06-19T13:45:22Z</time>
      </trkpt>
      <trkpt lat="45.10959" lon="0.38072">
        <ele>90.5</ele>
        <time>2015-06-19T13:45:42Z</time>
      </trkpt>
      <trkpt lat="45.10962" lon="0.3807">
        <ele>91.94</ele>
        <time>2015-06-19T13:45:53Z</time>
      </trkpt>
      <trkpt lat="45.1097" lon="0.3806">
        <ele>92.42</ele>
        <time>2015-06-19T13:46:08Z</time>
      </trkpt>
      <trkpt lat="45.10968" lon="0.38048">
        <ele>93.39</ele>
        <time>2015-06-19T13:46:20Z</time>
      </trkpt>
      <trkpt lat="45.10967" lon="0.38037">
        <ele>94.83</ele>
        <time>2015-06-19T13:46:28Z</time>
      </trkpt>
      <trkpt lat="45.10972" lon="0.38017">
        <ele>96.75</ele>
        <time>2015-06-19T13:46:43Z</time>
      </trkpt>
      <trkpt lat="45.10976" lon="0.38009">
        <ele>96.75</ele>
        <time>2015-06-19T13:46:48Z</time>
      </trkpt>
      <trkpt lat="45.1099" lon="0.37993">
        <ele>98.67</ele>
        <time>2015-06-19T13:47:02Z</time>
      </trkpt>
      <trkpt lat="45.11005" lon="0.37983">
        <ele>100.11</ele>
        <time>2015-06-19T13:47:16Z</time>
      </trkpt>
      <trkpt lat="45.11006" lon="0.37982">
        <ele>100.11</ele>
        <time>2015-06-19T13:47:17Z</time>
      </trkpt>
      <trkpt lat="45.11016" lon="0.37968">
        <ele>102.04</ele>
        <time>2015-06-19T13:47:30Z</time>
      </trkpt>
      <trkpt lat="45.11017" lon="0.37966">
        <ele>102.04</ele>
        <time>2015-06-19T13:47:31Z</time>
      </trkpt>
      <trkpt lat="45.11028" lon="0.37941">
        <ele>103</ele>
        <time>2015-06-19T13:47:48Z</time>
      </trkpt>
      <trkpt lat="45.11029" lon="0.37935">
        <ele>103.48</ele>
        <time>2015-06-19T13:47:52Z</time>
      </trkpt>
      <trkpt lat="45.11033" lon="0.37916">
        <ele>104.44</ele>
        <time>2015-06-19T13:48:06Z</time>
      </trkpt>
      <trkpt lat="45.11033" lon="0.37911">
        <ele>104.44</ele>
        <time>2015-06-19T13:48:09Z</time>
      </trkpt>
      <trkpt lat="45.11035" lon="0.37904">
        <ele>104.92</ele>
        <time>2015-06-19T13:48:14Z</time>
      </trkpt>
      <trkpt lat="45.11039" lon="0.3789">
        <ele>105.4</ele>
        <time>2015-06-19T13:48:27Z</time>
      </trkpt>
      <trkpt lat="45.11041" lon="0.37887">
        <ele>105.4</ele>
        <time>2015-06-19T13:48:48Z</time>
      </trkpt>
      <trkpt lat="45.1104" lon="0.37879">
        <ele>105.4</ele>
        <time>2015-06-19T13:49:13Z</time>
      </trkpt>
      <trkpt lat="45.11038" lon="0.37882">
        <ele>105.4</ele>
        <time>2015-06-19T13:49:41Z</time>
      </trkpt>
      <trkpt lat="45.11038" lon="0.37875">
        <ele>105.4</ele>
        <time>2015-06-19T13:50:10Z</time>
      </trkpt>
      <trkpt lat="45.11041" lon="0.37884">
        <ele>105.4</ele>
        <time>2015-06-19T13:50:33Z</time>
      </trkpt>
      <trkpt lat="45.11036" lon="0.37876">
        <ele>105.4</ele>
        <time>2015-06-19T13:50:46Z</time>
      </trkpt>
      <trkpt lat="45.11034" lon="0.37848">
        <ele>106.36</ele>
        <time>2015-06-19T13:51:04Z</time>
      </trkpt>
      <trkpt lat="45.11034" lon="0.37846">
        <ele>106.36</ele>
        <time>2015-06-19T13:51:05Z</time>
      </trkpt>
      <trkpt lat="45.1103" lon="0.37819">
        <ele>106.36</ele>
        <time>2015-06-19T13:51:20Z</time>
      </trkpt>
      <trkpt lat="45.1103" lon="0.37818">
        <ele>106.36</ele>
        <time>2015-06-19T13:51:21Z</time>
      </trkpt>
      <trkpt lat="45.11029" lon="0.3781">
        <ele>106.36</ele>
        <time>2015-06-19T13:51:28Z</time>
      </trkpt>
      <trkpt lat="45.11025" lon="0.37804">
        <ele>106.36</ele>
        <time>2015-06-19T13:51:32Z</time>
      </trkpt>
      <trkpt lat="45.11022" lon="0.37796">
        <ele>106.36</ele>
        <time>2015-06-19T13:51:37Z</time>
      </trkpt>
      <trkpt lat="45.11015" lon="0.37783">
        <ele>106.36</ele>
        <time>2015-06-19T13:51:47Z</time>
      </trkpt>
      <trkpt lat="45.1101" lon="0.37774">
        <ele>106.84</ele>
        <time>2015-06-19T13:51:57Z</time>
      </trkpt>
      <trkpt lat="45.11003" lon="0.37757">
        <ele>106.84</ele>
        <time>2015-06-19T13:52:12Z</time>
      </trkpt>
      <trkpt lat="45.10995" lon="0.37742">
        <ele>107.32</ele>
        <time>2015-06-19T13:52:25Z</time>
      </trkpt>
      <trkpt lat="45.10983" lon="0.37719">
        <ele>107.81</ele>
        <time>2015-06-19T13:52:41Z</time>
      </trkpt>
      <trkpt lat="45.10973" lon="0.377">
        <ele>111.17</ele>
        <time>2015-06-19T13:52:57Z</time>
      </trkpt>
      <trkpt lat="45.10964" lon="0.37681">
        <ele>108.77</ele>
        <time>2015-06-19T13:53:14Z</time>
      </trkpt>
      <trkpt lat="45.10956" lon="0.37672">
        <ele>110.21</ele>
        <time>2015-06-19T13:53:26Z</time>
      </trkpt>
      <trkpt lat="45.10956" lon="0.37668">
        <ele>110.21</ele>
        <time>2015-06-19T13:53:42Z</time>
      </trkpt>
      <trkpt lat="45.10956" lon="0.37664">
        <ele>110.21</ele>
        <time>2015-06-19T13:54:06Z</time>
      </trkpt>
      <trkpt lat="45.10956" lon="0.37668">
        <ele>110.21</ele>
        <time>2015-06-19T13:54:36Z</time>
      </trkpt>
      <trkpt lat="45.10954" lon="0.37661">
        <ele>110.21</ele>
        <time>2015-06-19T13:55:03Z</time>
      </trkpt>
      <trkpt lat="45.10955" lon="0.37662">
        <ele>110.21</ele>
        <time>2015-06-19T13:55:30Z</time>
      </trkpt>
      <trkpt lat="45.10957" lon="0.37668">
        <ele>110.21</ele>
        <time>2015-06-19T13:55:54Z</time>
      </trkpt>
      <trkpt lat="45.10959" lon="0.37671">
        <ele>109.73</ele>
        <time>2015-06-19T13:56:13Z</time>
      </trkpt>
      <trkpt lat="45.10957" lon="0.37665">
        <ele>110.69</ele>
        <time>2015-06-19T13:56:23Z</time>
      </trkpt>
      <trkpt lat="45.1094" lon="0.3764">
        <ele>111.65</ele>
        <time>2015-06-19T13:56:42Z</time>
      </trkpt>
      <trkpt lat="45.10933" lon="0.3762">
        <ele>113.09</ele>
        <time>2015-06-19T13:56:55Z</time>
      </trkpt>
      <trkpt lat="45.10929" lon="0.37598">
        <ele>111.65</ele>
        <time>2015-06-19T13:57:07Z</time>
      </trkpt>
      <trkpt lat="45.10928" lon="0.37592">
        <ele>113.09</ele>
        <time>2015-06-19T13:57:11Z</time>
      </trkpt>
      <trkpt lat="45.10921" lon="0.37568">
        <ele>113.09</ele>
        <time>2015-06-19T13:57:24Z</time>
      </trkpt>
      <trkpt lat="45.10919" lon="0.37561">
        <ele>113.57</ele>
        <time>2015-06-19T13:57:27Z</time>
      </trkpt>
      <trkpt lat="45.10917" lon="0.37551">
        <ele>114.53</ele>
        <time>2015-06-19T13:57:33Z</time>
      </trkpt>
      <trkpt lat="45.10912" lon="0.37527">
        <ele>115.01</ele>
        <time>2015-06-19T13:57:47Z</time>
      </trkpt>
      <trkpt lat="45.10908" lon="0.37502">
        <ele>115.98</ele>
        <time>2015-06-19T13:58:01Z</time>
      </trkpt>
      <trkpt lat="45.10905" lon="0.37485">
        <ele>117.42</ele>
        <time>2015-06-19T13:58:15Z</time>
      </trkpt>
      <trkpt lat="45.10902" lon="0.37473">
        <ele>117.9</ele>
        <time>2015-06-19T13:58:27Z</time>
      </trkpt>
      <trkpt lat="45.10899" lon="0.37459">
        <ele>118.86</ele>
        <time>2015-06-19T13:58:39Z</time>
      </trkpt>
      <trkpt lat="45.10895" lon="0.37441">
        <ele>119.82</ele>
        <time>2015-06-19T13:58:52Z</time>
      </trkpt>
      <trkpt lat="45.10891" lon="0.37428">
        <ele>120.78</ele>
        <time>2015-06-19T13:59:04Z</time>
      </trkpt>
      <trkpt lat="45.10886" lon="0.37408">
        <ele>121.26</ele>
        <time>2015-06-19T13:59:20Z</time>
      </trkpt>
      <trkpt lat="45.10878" lon="0.37388">
        <ele>122.22</ele>
        <time>2015-06-19T13:59:35Z</time>
      </trkpt>
      <trkpt lat="45.10873" lon="0.37379">
        <ele>123.67</ele>
        <time>2015-06-19T13:59:49Z</time>
      </trkpt>
      <trkpt lat="45.10866" lon="0.37386">
        <ele>123.67</ele>
        <time>2015-06-19T14:00:02Z</time>
      </trkpt>
      <trkpt lat="45.10866" lon="0.37387">
        <ele>124.15</ele>
        <time>2015-06-19T14:00:16Z</time>
      </trkpt>
      <trkpt lat="45.10868" lon="0.37387">
        <ele>124.15</ele>
        <time>2015-06-19T14:00:45Z</time>
      </trkpt>
      <trkpt lat="45.1087" lon="0.37387">
        <ele>124.15</ele>
        <time>2015-06-19T14:01:13Z</time>
      </trkpt>
      <trkpt lat="45.10874" lon="0.37382">
        <ele>124.15</ele>
        <time>2015-06-19T14:01:44Z</time>
      </trkpt>
      <trkpt lat="45.10878" lon="0.3738">
        <ele>124.15</ele>
        <time>2015-06-19T14:01:49Z</time>
      </trkpt>
      <trkpt lat="45.1088" lon="0.37379">
        <ele>122.71</ele>
        <time>2015-06-19T14:01:51Z</time>
      </trkpt>
      <trkpt lat="45.10879" lon="0.37378">
        <ele>122.71</ele>
        <time>2015-06-19T14:01:52Z</time>
      </trkpt>
      <trkpt lat="45.10874" lon="0.37346">
        <ele>124.15</ele>
        <time>2015-06-19T14:02:11Z</time>
      </trkpt>
      <trkpt lat="45.10873" lon="0.37344">
        <ele>124.15</ele>
        <time>2015-06-19T14:02:12Z</time>
      </trkpt>
      <trkpt lat="45.10872" lon="0.37325">
        <ele>124.15</ele>
        <time>2015-06-19T14:02:23Z</time>
      </trkpt>
      <trkpt lat="45.10868" lon="0.37305">
        <ele>125.11</ele>
        <time>2015-06-19T14:02:36Z</time>
      </trkpt>
      <trkpt lat="45.10866" lon="0.37295">
        <ele>123.67</ele>
        <time>2015-06-19T14:02:42Z</time>
      </trkpt>
      <trkpt lat="45.10861" lon="0.37272">
        <ele>123.19</ele>
        <time>2015-06-19T14:02:57Z</time>
      </trkpt>
      <trkpt lat="45.10859" lon="0.37268">
        <ele>123.19</ele>
        <time>2015-06-19T14:02:59Z</time>
      </trkpt>
      <trkpt lat="45.10859" lon="0.37264">
        <ele>123.19</ele>
        <time>2015-06-19T14:03:02Z</time>
      </trkpt>
      <trkpt lat="45.10857" lon="0.37248">
        <ele>121.26</ele>
        <time>2015-06-19T14:03:15Z</time>
      </trkpt>
      <trkpt lat="45.10855" lon="0.37233">
        <ele>120.3</ele>
        <time>2015-06-19T14:03:24Z</time>
      </trkpt>
      <trkpt lat="45.10849" lon="0.37213">
        <ele>118.86</ele>
        <time>2015-06-19T14:03:40Z</time>
      </trkpt>
      <trkpt lat="45.10846" lon="0.37192">
        <ele>117.9</ele>
        <time>2015-06-19T14:03:55Z</time>
      </trkpt>
      <trkpt lat="45.10842" lon="0.37184">
        <ele>117.42</ele>
        <time>2015-06-19T14:04:02Z</time>
      </trkpt>
      <trkpt lat="45.10835" lon="0.37169">
        <ele>115.98</ele>
        <time>2015-06-19T14:04:15Z</time>
      </trkpt>
      <trkpt lat="45.10827" lon="0.37148">
        <ele>115.5</ele>
        <time>2015-06-19T14:04:31Z</time>
      </trkpt>
      <trkpt lat="45.10821" lon="0.37134">
        <ele>114.53</ele>
        <time>2015-06-19T14:04:40Z</time>
      </trkpt>
      <trkpt lat="45.10817" lon="0.37115">
        <ele>114.05</ele>
        <time>2015-06-19T14:04:55Z</time>
      </trkpt>
      <trkpt lat="45.10818" lon="0.37112">
        <ele>113.57</ele>
        <time>2015-06-19T14:05:12Z</time>
      </trkpt>
      <trkpt lat="45.10817" lon="0.3711">
        <ele>113.57</ele>
        <time>2015-06-19T14:05:40Z</time>
      </trkpt>
      <trkpt lat="45.10819" lon="0.37105">
        <ele>113.57</ele>
        <time>2015-06-19T14:06:12Z</time>
      </trkpt>
      <trkpt lat="45.10817" lon="0.37107">
        <ele>113.57</ele>
        <time>2015-06-19T14:06:43Z</time>
      </trkpt>
      <trkpt lat="45.10818" lon="0.37106">
        <ele>113.57</ele>
        <time>2015-06-19T14:07:07Z</time>
      </trkpt>
      <trkpt lat="45.10817" lon="0.37113">
        <ele>113.57</ele>
        <time>2015-06-19T14:07:27Z</time>
      </trkpt>
      <trkpt lat="45.10815" lon="0.37111">
        <ele>113.57</ele>
        <time>2015-06-19T14:07:33Z</time>
      </trkpt>
      <trkpt lat="45.10813" lon="0.37106">
        <ele>113.57</ele>
        <time>2015-06-19T14:07:36Z</time>
      </trkpt>
      <trkpt lat="45.10805" lon="0.37066">
        <ele>111.65</ele>
        <time>2015-06-19T14:07:59Z</time>
      </trkpt>
      <trkpt lat="45.10802" lon="0.37047">
        <ele>110.69</ele>
        <time>2015-06-19T14:08:11Z</time>
      </trkpt>
      <trkpt lat="45.108" lon="0.37037">
        <ele>110.69</ele>
        <time>2015-06-19T14:08:16Z</time>
      </trkpt>
      <trkpt lat="45.10804" lon="0.3703">
        <ele>110.21</ele>
        <time>2015-06-19T14:08:27Z</time>
      </trkpt>
      <trkpt lat="45.108" lon="0.37023">
        <ele>109.73</ele>
        <time>2015-06-19T14:08:53Z</time>
      </trkpt>
      <trkpt lat="45.10796" lon="0.36999">
        <ele>108.77</ele>
        <time>2015-06-19T14:09:07Z</time>
      </trkpt>
      <trkpt lat="45.10795" lon="0.36988">
        <ele>108.77</ele>
        <time>2015-06-19T14:09:12Z</time>
      </trkpt>
      <trkpt lat="45.10795" lon="0.36966">
        <ele>107.81</ele>
        <time>2015-06-19T14:09:25Z</time>
      </trkpt>
      <trkpt lat="45.10792" lon="0.36949">
        <ele>107.81</ele>
        <time>2015-06-19T14:09:34Z</time>
      </trkpt>
      <trkpt lat="45.10787" lon="0.3693">
        <ele>107.81</ele>
        <time>2015-06-19T14:09:44Z</time>
      </trkpt>
      <trkpt lat="45.10782" lon="0.36908">
        <ele>107.32</ele>
        <time>2015-06-19T14:10:00Z</time>
      </trkpt>
      <trkpt lat="45.10778" lon="0.36902">
        <ele>107.32</ele>
        <time>2015-06-19T14:10:13Z</time>
      </trkpt>
      <trkpt lat="45.10778" lon="0.36899">
        <ele>106.36</ele>
        <time>2015-06-19T14:10:27Z</time>
      </trkpt>
      <trkpt lat="45.10779" lon="0.36902">
        <ele>106.36</ele>
        <time>2015-06-19T14:10:37Z</time>
      </trkpt>
      <trkpt lat="45.10777" lon="0.36902">
        <ele>106.36</ele>
        <time>2015-06-19T14:10:58Z</time>
      </trkpt>
      <trkpt lat="45.10783" lon="0.36898">
        <ele>107.81</ele>
        <time>2015-06-19T14:11:13Z</time>
      </trkpt>
      <trkpt lat="45.10778" lon="0.36899">
        <ele>107.81</ele>
        <time>2015-06-19T14:11:24Z</time>
      </trkpt>
      <trkpt lat="45.10778" lon="0.36904">
        <ele>107.81</ele>
        <time>2015-06-19T14:11:34Z</time>
      </trkpt>
      <trkpt lat="45.10775" lon="0.36905">
        <ele>108.29</ele>
        <time>2015-06-19T14:11:49Z</time>
      </trkpt>
      <trkpt lat="45.1077" lon="0.36902">
        <ele>108.29</ele>
        <time>2015-06-19T14:12:05Z</time>
      </trkpt>
      <trkpt lat="45.10774" lon="0.36901">
        <ele>108.29</ele>
        <time>2015-06-19T14:12:20Z</time>
      </trkpt>
      <trkpt lat="45.10779" lon="0.36904">
        <ele>108.29</ele>
        <time>2015-06-19T14:12:31Z</time>
      </trkpt>
      <trkpt lat="45.10777" lon="0.36904">
        <ele>106.84</ele>
        <time>2015-06-19T14:12:40Z</time>
      </trkpt>
      <trkpt lat="45.10778" lon="0.36902">
        <ele>106.84</ele>
        <time>2015-06-19T14:12:57Z</time>
      </trkpt>
      <trkpt lat="45.10778" lon="0.36899">
        <ele>106.84</ele>
        <time>2015-06-19T14:13:14Z</time>
      </trkpt>
      <trkpt lat="45.10781" lon="0.36904">
        <ele>106.84</ele>
        <time>2015-06-19T14:13:37Z</time>
      </trkpt>
      <trkpt lat="45.10781" lon="0.36905">
        <ele>106.84</ele>
        <time>2015-06-19T14:13:55Z</time>
      </trkpt>
      <trkpt lat="45.10781" lon="0.36903">
        <ele>106.84</ele>
        <time>2015-06-19T14:14:11Z</time>
      </trkpt>
      <trkpt lat="45.10782" lon="0.36906">
        <ele>106.36</ele>
        <time>2015-06-19T14:14:32Z</time>
      </trkpt>
      <trkpt lat="45.10782" lon="0.36904">
        <ele>107.81</ele>
        <time>2015-06-19T14:14:41Z</time>
      </trkpt>
      <trkpt lat="45.10783" lon="0.36893">
        <ele>107.81</ele>
        <time>2015-06-19T14:14:53Z</time>
      </trkpt>
      <trkpt lat="45.10785" lon="0.36893">
        <ele>107.81</ele>
        <time>2015-06-19T14:15:07Z</time>
      </trkpt>
      <trkpt lat="45.10785" lon="0.36902">
        <ele>107.81</ele>
        <time>2015-06-19T14:15:20Z</time>
      </trkpt>
      <trkpt lat="45.10788" lon="0.36904">
        <ele>107.81</ele>
        <time>2015-06-19T14:15:35Z</time>
      </trkpt>
      <trkpt lat="45.10785" lon="0.36902">
        <ele>107.81</ele>
        <time>2015-06-19T14:15:44Z</time>
      </trkpt>
      <trkpt lat="45.10781" lon="0.36902">
        <ele>107.81</ele>
        <time>2015-06-19T14:15:50Z</time>
      </trkpt>
      <trkpt lat="45.10778" lon="0.36898">
        <ele>107.32</ele>
        <time>2015-06-19T14:16:05Z</time>
      </trkpt>
      <trkpt lat="45.10778" lon="0.36902">
        <ele>107.32</ele>
        <time>2015-06-19T14:16:27Z</time>
      </trkpt>
      <trkpt lat="45.10781" lon="0.36901">
        <ele>107.32</ele>
        <time>2015-06-19T14:16:39Z</time>
      </trkpt>
      <trkpt lat="45.10783" lon="0.36896">
        <ele>107.32</ele>
        <time>2015-06-19T14:16:44Z</time>
      </trkpt>
      <trkpt lat="45.1077" lon="0.36863">
        <ele>107.32</ele>
        <time>2015-06-19T14:17:05Z</time>
      </trkpt>
      <trkpt lat="45.10766" lon="0.36844">
        <ele>107.32</ele>
        <time>2015-06-19T14:17:16Z</time>
      </trkpt>
      <trkpt lat="45.10764" lon="0.3684">
        <ele>107.32</ele>
        <time>2015-06-19T14:17:19Z</time>
      </trkpt>
      <trkpt lat="45.10756" lon="0.36813">
        <ele>107.32</ele>
        <time>2015-06-19T14:17:36Z</time>
      </trkpt>
      <trkpt lat="45.10744" lon="0.3678">
        <ele>107.32</ele>
        <time>2015-06-19T14:17:53Z</time>
      </trkpt>
      <trkpt lat="45.10738" lon="0.36752">
        <ele>107.32</ele>
        <time>2015-06-19T14:18:09Z</time>
      </trkpt>
      <trkpt lat="45.10727" lon="0.36714">
        <ele>107.81</ele>
        <time>2015-06-19T14:18:28Z</time>
      </trkpt>
      <trkpt lat="45.10718" lon="0.3668">
        <ele>108.29</ele>
        <time>2015-06-19T14:18:46Z</time>
      </trkpt>
      <trkpt lat="45.10717" lon="0.36674">
        <ele>108.29</ele>
        <time>2015-06-19T14:18:49Z</time>
      </trkpt>
      <trkpt lat="45.10716" lon="0.36668">
        <ele>108.29</ele>
        <time>2015-06-19T14:19:02Z</time>
      </trkpt>
      <trkpt lat="45.10709" lon="0.3667">
        <ele>108.77</ele>
        <time>2015-06-19T14:19:14Z</time>
      </trkpt>
      <trkpt lat="45.10701" lon="0.36679">
        <ele>109.73</ele>
        <time>2015-06-19T14:19:27Z</time>
      </trkpt>
      <trkpt lat="45.10693" lon="0.36681">
        <ele>110.21</ele>
        <time>2015-06-19T14:19:41Z</time>
      </trkpt>
      <trkpt lat="45.10693" lon="0.36682">
        <ele>110.21</ele>
        <time>2015-06-19T14:19:56Z</time>
      </trkpt>
      <trkpt lat="45.10689" lon="0.36681">
        <ele>110.21</ele>
        <time>2015-06-19T14:20:12Z</time>
      </trkpt>
      <trkpt lat="45.10692" lon="0.36684">
        <ele>110.21</ele>
        <time>2015-06-19T14:20:31Z</time>
      </trkpt>
      <trkpt lat="45.10694" lon="0.36687">
        <ele>110.21</ele>
        <time>2015-06-19T14:21:01Z</time>
      </trkpt>
      <trkpt lat="45.1069" lon="0.36682">
        <ele>110.21</ele>
        <time>2015-06-19T14:21:17Z</time>
      </trkpt>
      <trkpt lat="45.10688" lon="0.3668">
        <ele>110.21</ele>
        <time>2015-06-19T14:21:39Z</time>
      </trkpt>
      <trkpt lat="45.10688" lon="0.36681">
        <ele>110.21</ele>
        <time>2015-06-19T14:21:41Z</time>
      </trkpt>
      <trkpt lat="45.10694" lon="0.36682">
        <ele>109.25</ele>
        <time>2015-06-19T14:21:54Z</time>
      </trkpt>
      <trkpt lat="45.10695" lon="0.36684">
        <ele>109.25</ele>
        <time>2015-06-19T14:22:15Z</time>
      </trkpt>
      <trkpt lat="45.10694" lon="0.36683">
        <ele>109.25</ele>
        <time>2015-06-19T14:22:33Z</time>
      </trkpt>
      <trkpt lat="45.10697" lon="0.36685">
        <ele>109.25</ele>
        <time>2015-06-19T14:22:50Z</time>
      </trkpt>
      <trkpt lat="45.10696" lon="0.3668">
        <ele>109.25</ele>
        <time>2015-06-19T14:23:04Z</time>
      </trkpt>
      <trkpt lat="45.10697" lon="0.36676">
        <ele>109.25</ele>
        <time>2015-06-19T14:23:25Z</time>
      </trkpt>
      <trkpt lat="45.10702" lon="0.36671">
        <ele>108.77</ele>
        <time>2015-06-19T14:23:46Z</time>
      </trkpt>
      <trkpt lat="45.1071" lon="0.36666">
        <ele>108.29</ele>
        <time>2015-06-19T14:23:56Z</time>
      </trkpt>
      <trkpt lat="45.10712" lon="0.36663">
        <ele>107.32</ele>
        <time>2015-06-19T14:23:58Z</time>
      </trkpt>
      <trkpt lat="45.10712" lon="0.36654">
        <ele>107.32</ele>
        <time>2015-06-19T14:24:03Z</time>
      </trkpt>
      <trkpt lat="45.10707" lon="0.36615">
        <ele>107.32</ele>
        <time>2015-06-19T14:24:24Z</time>
      </trkpt>
      <trkpt lat="45.10703" lon="0.36595">
        <ele>106.84</ele>
        <time>2015-06-19T14:24:38Z</time>
      </trkpt>
      <trkpt lat="45.10697" lon="0.36586">
        <ele>106.84</ele>
        <time>2015-06-19T14:25:05Z</time>
      </trkpt>
      <trkpt lat="45.10698" lon="0.36585">
        <ele>105.4</ele>
        <time>2015-06-19T14:25:42Z</time>
      </trkpt>
      <trkpt lat="45.10705" lon="0.36587">
        <ele>105.4</ele>
        <time>2015-06-19T14:26:01Z</time>
      </trkpt>
      <trkpt lat="45.10705" lon="0.36587">
        <ele>105.4</ele>
        <time>2015-06-19T14:26:25Z</time>
      </trkpt>
      <trkpt lat="45.10704" lon="0.36587">
        <ele>105.4</ele>
        <time>2015-06-19T14:26:53Z</time>
      </trkpt>
      <trkpt lat="45.10702" lon="0.36588">
        <ele>105.4</ele>
        <time>2015-06-19T14:27:12Z</time>
      </trkpt>
      <trkpt lat="45.10702" lon="0.36588">
        <ele>105.4</ele>
        <time>2015-06-19T14:27:33Z</time>
      </trkpt>
      <trkpt lat="45.10702" lon="0.36589">
        <ele>105.4</ele>
        <time>2015-06-19T14:27:49Z</time>
      </trkpt>
      <trkpt lat="45.10699" lon="0.36578">
        <ele>105.4</ele>
        <time>2015-06-19T14:28:03Z</time>
      </trkpt>
      <trkpt lat="45.10692" lon="0.36559">
        <ele>105.4</ele>
        <time>2015-06-19T14:28:19Z</time>
      </trkpt>
      <trkpt lat="45.10686" lon="0.36535">
        <ele>105.4</ele>
        <time>2015-06-19T14:28:34Z</time>
      </trkpt>
      <trkpt lat="45.10679" lon="0.36517">
        <ele>106.84</ele>
        <time>2015-06-19T14:28:48Z</time>
      </trkpt>
      <trkpt lat="45.10675" lon="0.36501">
        <ele>107.32</ele>
        <time>2015-06-19T14:29:00Z</time>
      </trkpt>
      <trkpt lat="45.10669" lon="0.36478">
        <ele>109.25</ele>
        <time>2015-06-19T14:29:16Z</time>
      </trkpt>
      <trkpt lat="45.1066" lon="0.36452">
        <ele>108.77</ele>
        <time>2015-06-19T14:29:32Z</time>
      </trkpt>
      <trkpt lat="45.10656" lon="0.36439">
        <ele>109.73</ele>
        <time>2015-06-19T14:29:46Z</time>
      </trkpt>
      <trkpt lat="45.10656" lon="0.3644">
        <ele>109.73</ele>
        <time>2015-06-19T14:29:59Z</time>
      </trkpt>
      <trkpt lat="45.10654" lon="0.36445">
        <ele>110.21</ele>
        <time>2015-06-19T14:30:08Z</time>
      </trkpt>
      <trkpt lat="45.10652" lon="0.36446">
        <ele>110.21</ele>
        <time>2015-06-19T14:30:24Z</time>
      </trkpt>
      <trkpt lat="45.1065" lon="0.36445">
        <ele>110.69</ele>
        <time>2015-06-19T14:30:38Z</time>
      </trkpt>
      <trkpt lat="45.1065" lon="0.36445">
        <ele>110.69</ele>
        <time>2015-06-19T14:30:57Z</time>
      </trkpt>
      <trkpt lat="45.10651" lon="0.36446">
        <ele>110.69</ele>
        <time>2015-06-19T14:31:15Z</time>
      </trkpt>
      <trkpt lat="45.10647" lon="0.36445">
        <ele>110.69</ele>
        <time>2015-06-19T14:31:27Z</time>
      </trkpt>
      <trkpt lat="45.10649" lon="0.36447">
        <ele>110.69</ele>
        <time>2015-06-19T14:31:42Z</time>
      </trkpt>
      <trkpt lat="45.10647" lon="0.36444">
        <ele>110.69</ele>
        <time>2015-06-19T14:32:00Z</time>
      </trkpt>
      <trkpt lat="45.10649" lon="0.36442">
        <ele>110.69</ele>
        <time>2015-06-19T14:32:14Z</time>
      </trkpt>
      <trkpt lat="45.10651" lon="0.36448">
        <ele>111.17</ele>
        <time>2015-06-19T14:32:29Z</time>
      </trkpt>
      <trkpt lat="45.10651" lon="0.36446">
        <ele>111.17</ele>
        <time>2015-06-19T14:32:42Z</time>
      </trkpt>
      <trkpt lat="45.1065" lon="0.36449">
        <ele>111.17</ele>
        <time>2015-06-19T14:33:02Z</time>
      </trkpt>
      <trkpt lat="45.10649" lon="0.36449">
        <ele>111.17</ele>
        <time>2015-06-19T14:33:20Z</time>
      </trkpt>
      <trkpt lat="45.10651" lon="0.36444">
        <ele>111.17</ele>
        <time>2015-06-19T14:33:35Z</time>
      </trkpt>
      <trkpt lat="45.10653" lon="0.36444">
        <ele>109.73</ele>
        <time>2015-06-19T14:33:37Z</time>
      </trkpt>
      <trkpt lat="45.10657" lon="0.36441">
        <ele>109.73</ele>
        <time>2015-06-19T14:33:40Z</time>
      </trkpt>
      <trkpt lat="45.10661" lon="0.36433">
        <ele>109.25</ele>
        <time>2015-06-19T14:33:54Z</time>
      </trkpt>
      <trkpt lat="45.10662" lon="0.36428">
        <ele>109.25</ele>
        <time>2015-06-19T14:34:07Z</time>
      </trkpt>
      <trkpt lat="45.10659" lon="0.36426">
        <ele>110.21</ele>
        <time>2015-06-19T14:34:31Z</time>
      </trkpt>
      <trkpt lat="45.10662" lon="0.36433">
        <ele>108.77</ele>
        <time>2015-06-19T14:34:55Z</time>
      </trkpt>
      <trkpt lat="45.10662" lon="0.36433">
        <ele>108.77</ele>
        <time>2015-06-19T14:35:09Z</time>
      </trkpt>
      <trkpt lat="45.10659" lon="0.36426">
        <ele>108.77</ele>
        <time>2015-06-19T14:35:29Z</time>
      </trkpt>
      <trkpt lat="45.1066" lon="0.36426">
        <ele>110.21</ele>
        <time>2015-06-19T14:35:33Z</time>
      </trkpt>
      <trkpt lat="45.1066" lon="0.36427">
        <ele>108.77</ele>
        <time>2015-06-19T14:35:35Z</time>
      </trkpt>
      <trkpt lat="45.10661" lon="0.36425">
        <ele>110.21</ele>
        <time>2015-06-19T14:35:39Z</time>
      </trkpt>
      <trkpt lat="45.10661" lon="0.36425">
        <ele>108.77</ele>
        <time>2015-06-19T14:35:43Z</time>
      </trkpt>
      <trkpt lat="45.10661" lon="0.36425">
        <ele>108.29</ele>
        <time>2015-06-19T14:36:05Z</time>
      </trkpt>
      <trkpt lat="45.1066" lon="0.36418">
        <ele>108.29</ele>
        <time>2015-06-19T14:36:26Z</time>
      </trkpt>
      <trkpt lat="45.10659" lon="0.36422">
        <ele>108.29</ele>
        <time>2015-06-19T14:36:43Z</time>
      </trkpt>
      <trkpt lat="45.10656" lon="0.36423">
        <ele>109.73</ele>
        <time>2015-06-19T14:36:50Z</time>
      </trkpt>
      <trkpt lat="45.10649" lon="0.36421">
        <ele>110.21</ele>
        <time>2015-06-19T14:37:04Z</time>
      </trkpt>
      <trkpt lat="45.10644" lon="0.36433">
        <ele>110.21</ele>
        <time>2015-06-19T14:37:21Z</time>
      </trkpt>
      <trkpt lat="45.10635" lon="0.36443">
        <ele>110.69</ele>
        <time>2015-06-19T14:37:31Z</time>
      </trkpt>
      <trkpt lat="45.10622" lon="0.36457">
        <ele>110.69</ele>
        <time>2015-06-19T14:37:46Z</time>
      </trkpt>
      <trkpt lat="45.10614" lon="0.36464">
        <ele>111.17</ele>
        <time>2015-06-19T14:37:57Z</time>
      </trkpt>
      <trkpt lat="45.10603" lon="0.36475">
        <ele>111.65</ele>
        <time>2015-06-19T14:38:11Z</time>
      </trkpt>
      <trkpt lat="45.10585" lon="0.36488">
        <ele>112.13</ele>
        <time>2015-06-19T14:38:26Z</time>
      </trkpt>
      <trkpt lat="45.10574" lon="0.365">
        <ele>112.13</ele>
        <time>2015-06-19T14:38:40Z</time>
      </trkpt>
      <trkpt lat="45.10571" lon="0.36502">
        <ele>112.61</ele>
        <time>2015-06-19T14:38:43Z</time>
      </trkpt>
      <trkpt lat="45.10561" lon="0.36511">
        <ele>113.09</ele>
        <time>2015-06-19T14:38:55Z</time>
      </trkpt>
      <trkpt lat="45.10548" lon="0.36522">
        <ele>113.57</ele>
        <time>2015-06-19T14:39:12Z</time>
      </trkpt>
      <trkpt lat="45.10541" lon="0.36528">
        <ele>114.05</ele>
        <time>2015-06-19T14:39:22Z</time>
      </trkpt>
      <trkpt lat="45.10526" lon="0.36541">
        <ele>114.05</ele>
        <time>2015-06-19T14:39:38Z</time>
      </trkpt>
      <trkpt lat="45.10512" lon="0.36551">
        <ele>114.53</ele>
        <time>2015-06-19T14:39:54Z</time>
      </trkpt>
      <trkpt lat="45.10505" lon="0.3656">
        <ele>114.53</ele>
        <time>2015-06-19T14:40:10Z</time>
      </trkpt>
      <trkpt lat="45.10503" lon="0.3656">
        <ele>115.5</ele>
        <time>2015-06-19T14:40:24Z</time>
      </trkpt>
      <trkpt lat="45.10505" lon="0.3656">
        <ele>115.5</ele>
        <time>2015-06-19T14:40:42Z</time>
      </trkpt>
      <trkpt lat="45.10505" lon="0.36559">
        <ele>115.5</ele>
        <time>2015-06-19T14:40:50Z</time>
      </trkpt>
      <trkpt lat="45.10506" lon="0.36551">
        <ele>115.01</ele>
        <time>2015-06-19T14:41:01Z</time>
      </trkpt>
      <trkpt lat="45.10507" lon="0.36551">
        <ele>114.53</ele>
        <time>2015-06-19T14:41:19Z</time>
      </trkpt>
      <trkpt lat="45.10511" lon="0.36549">
        <ele>114.05</ele>
        <time>2015-06-19T14:41:44Z</time>
      </trkpt>
      <trkpt lat="45.10517" lon="0.36553">
        <ele>114.05</ele>
        <time>2015-06-19T14:42:09Z</time>
      </trkpt>
      <trkpt lat="45.10516" lon="0.36558">
        <ele>115.01</ele>
        <time>2015-06-19T14:42:31Z</time>
      </trkpt>
      <trkpt lat="45.10517" lon="0.36556">
        <ele>115.5</ele>
        <time>2015-06-19T14:42:54Z</time>
      </trkpt>
      <trkpt lat="45.10521" lon="0.36559">
        <ele>115.5</ele>
        <time>2015-06-19T14:43:12Z</time>
      </trkpt>
      <trkpt lat="45.10517" lon="0.36561">
        <ele>114.05</ele>
        <time>2015-06-19T14:43:15Z</time>
      </trkpt>
      <trkpt lat="45.105" lon="0.36568">
        <ele>115.5</ele>
        <time>2015-06-19T14:43:27Z</time>
      </trkpt>
      <trkpt lat="45.10484" lon="0.36577">
        <ele>115.5</ele>
        <time>2015-06-19T14:43:43Z</time>
      </trkpt>
      <trkpt lat="45.10466" lon="0.36593">
        <ele>115.5</ele>
        <time>2015-06-19T14:43:59Z</time>
      </trkpt>
      <trkpt lat="45.10451" lon="0.36608">
        <ele>116.46</ele>
        <time>2015-06-19T14:44:13Z</time>
      </trkpt>
      <trkpt lat="45.10444" lon="0.36617">
        <ele>116.94</ele>
        <time>2015-06-19T14:44:22Z</time>
      </trkpt>
      <trkpt lat="45.10431" lon="0.3663">
        <ele>117.9</ele>
        <time>2015-06-19T14:44:39Z</time>
      </trkpt>
      <trkpt lat="45.10413" lon="0.36652">
        <ele>118.86</ele>
        <time>2015-06-19T14:44:58Z</time>
      </trkpt>
      <trkpt lat="45.10409" lon="0.36658">
        <ele>119.34</ele>
        <time>2015-06-19T14:45:03Z</time>
      </trkpt>
      <trkpt lat="45.10404" lon="0.36665">
        <ele>119.82</ele>
        <time>2015-06-19T14:45:10Z</time>
      </trkpt>
      <trkpt lat="45.10388" lon="0.36682">
        <ele>119.82</ele>
        <time>2015-06-19T14:45:31Z</time>
      </trkpt>
      <trkpt lat="45.10374" lon="0.36696">
        <ele>119.82</ele>
        <time>2015-06-19T14:45:48Z</time>
      </trkpt>
      <trkpt lat="45.10367" lon="0.36705">
        <ele>119.82</ele>
        <time>2015-06-19T14:45:56Z</time>
      </trkpt>
      <trkpt lat="45.10365" lon="0.36708">
        <ele>120.3</ele>
        <time>2015-06-19T14:45:59Z</time>
      </trkpt>
      <trkpt lat="45.10351" lon="0.36725">
        <ele>120.3</ele>
        <time>2015-06-19T14:46:17Z</time>
      </trkpt>
      <trkpt lat="45.10336" lon="0.36745">
        <ele>121.26</ele>
        <time>2015-06-19T14:46:35Z</time>
      </trkpt>
      <trkpt lat="45.10326" lon="0.36759">
        <ele>122.22</ele>
        <time>2015-06-19T14:46:48Z</time>
      </trkpt>
      <trkpt lat="45.10314" lon="0.36773">
        <ele>122.22</ele>
        <time>2015-06-19T14:47:03Z</time>
      </trkpt>
      <trkpt lat="45.10312" lon="0.36775">
        <ele>122.22</ele>
        <time>2015-06-19T14:47:05Z</time>
      </trkpt>
      <trkpt lat="45.10299" lon="0.36786">
        <ele>120.78</ele>
        <time>2015-06-19T14:47:21Z</time>
      </trkpt>
      <trkpt lat="45.10285" lon="0.36798">
        <ele>119.34</ele>
        <time>2015-06-19T14:47:37Z</time>
      </trkpt>
      <trkpt lat="45.10268" lon="0.36815">
        <ele>118.38</ele>
        <time>2015-06-19T14:47:57Z</time>
      </trkpt>
      <trkpt lat="45.10266" lon="0.36818">
        <ele>117.42</ele>
        <time>2015-06-19T14:48:11Z</time>
      </trkpt>
      <trkpt lat="45.10268" lon="0.36815">
        <ele>117.42</ele>
        <time>2015-06-19T14:48:25Z</time>
      </trkpt>
      <trkpt lat="45.10271" lon="0.36816">
        <ele>117.42</ele>
        <time>2015-06-19T14:48:52Z</time>
      </trkpt>
      <trkpt lat="45.10269" lon="0.36818">
        <ele>117.42</ele>
        <time>2015-06-19T14:49:13Z</time>
      </trkpt>
      <trkpt lat="45.10265" lon="0.36817">
        <ele>116.94</ele>
        <time>2015-06-19T14:49:30Z</time>
      </trkpt>
      <trkpt lat="45.10263" lon="0.36819">
        <ele>116.94</ele>
        <time>2015-06-19T14:49:39Z</time>
      </trkpt>
      <trkpt lat="45.1027" lon="0.36817">
        <ele>118.38</ele>
        <time>2015-06-19T14:49:51Z</time>
      </trkpt>
      <trkpt lat="45.10268" lon="0.36821">
        <ele>118.86</ele>
        <time>2015-06-19T14:50:04Z</time>
      </trkpt>
      <trkpt lat="45.1027" lon="0.36822">
        <ele>119.34</ele>
        <time>2015-06-19T14:50:21Z</time>
      </trkpt>
      <trkpt lat="45.10273" lon="0.3682">
        <ele>119.34</ele>
        <time>2015-06-19T14:50:42Z</time>
      </trkpt>
      <trkpt lat="45.10269" lon="0.3682">
        <ele>119.34</ele>
        <time>2015-06-19T14:51:01Z</time>
      </trkpt>
      <trkpt lat="45.10272" lon="0.36818">
        <ele>117.9</ele>
        <time>2015-06-19T14:51:24Z</time>
      </trkpt>
      <trkpt lat="45.10272" lon="0.36823">
        <ele>117.9</ele>
        <time>2015-06-19T14:51:37Z</time>
      </trkpt>
      <trkpt lat="45.10269" lon="0.36822">
        <ele>117.9</ele>
        <time>2015-06-19T14:51:53Z</time>
      </trkpt>
      <trkpt lat="45.10269" lon="0.36825">
        <ele>117.9</ele>
        <time>2015-06-19T14:52:07Z</time>
      </trkpt>
      <trkpt lat="45.10265" lon="0.36825">
        <ele>117.9</ele>
        <time>2015-06-19T14:52:21Z</time>
      </trkpt>
      <trkpt lat="45.10266" lon="0.36823">
        <ele>117.9</ele>
        <time>2015-06-19T14:52:49Z</time>
      </trkpt>
      <trkpt lat="45.10272" lon="0.3682">
        <ele>117.9</ele>
        <time>2015-06-19T14:53:04Z</time>
      </trkpt>
      <trkpt lat="45.1027" lon="0.36819">
        <ele>117.9</ele>
        <time>2015-06-19T14:53:19Z</time>
      </trkpt>
      <trkpt lat="45.10269" lon="0.3682">
        <ele>117.9</ele>
        <time>2015-06-19T14:53:36Z</time>
      </trkpt>
      <trkpt lat="45.10271" lon="0.36818">
        <ele>117.9</ele>
        <time>2015-06-19T14:54:02Z</time>
      </trkpt>
      <trkpt lat="45.10272" lon="0.36818">
        <ele>117.9</ele>
        <time>2015-06-19T14:54:17Z</time>
      </trkpt>
      <trkpt lat="45.10272" lon="0.36817">
        <ele>117.9</ele>
        <time>2015-06-19T14:54:20Z</time>
      </trkpt>
      <trkpt lat="45.10268" lon="0.36813">
        <ele>117.42</ele>
        <time>2015-06-19T14:54:31Z</time>
      </trkpt>
      <trkpt lat="45.1027" lon="0.36809">
        <ele>117.42</ele>
        <time>2015-06-19T14:54:49Z</time>
      </trkpt>
      <trkpt lat="45.10268" lon="0.36816">
        <ele>116.94</ele>
        <time>2015-06-19T14:55:08Z</time>
      </trkpt>
      <trkpt lat="45.10265" lon="0.36817">
        <ele>116.94</ele>
        <time>2015-06-19T14:55:34Z</time>
      </trkpt>
      <trkpt lat="45.10261" lon="0.3682">
        <ele>116.46</ele>
        <time>2015-06-19T14:55:51Z</time>
      </trkpt>
      <trkpt lat="45.10245" lon="0.36839">
        <ele>115.5</ele>
        <time>2015-06-19T14:56:08Z</time>
      </trkpt>
      <trkpt lat="45.10222" lon="0.3686">
        <ele>113.57</ele>
        <time>2015-06-19T14:56:27Z</time>
      </trkpt>
      <trkpt lat="45.10204" lon="0.36877">
        <ele>112.61</ele>
        <time>2015-06-19T14:56:42Z</time>
      </trkpt>
      <trkpt lat="45.10189" lon="0.36902">
        <ele>110.69</ele>
        <time>2015-06-19T14:56:58Z</time>
      </trkpt>
      <trkpt lat="45.10172" lon="0.3693">
        <ele>109.73</ele>
        <time>2015-06-19T14:57:16Z</time>
      </trkpt>
      <trkpt lat="45.10155" lon="0.36961">
        <ele>108.77</ele>
        <time>2015-06-19T14:57:35Z</time>
      </trkpt>
      <trkpt lat="45.10137" lon="0.36986">
        <ele>108.77</ele>
        <time>2015-06-19T14:57:53Z</time>
      </trkpt>
      <trkpt lat="45.10118" lon="0.37017">
        <ele>108.29</ele>
        <time>2015-06-19T14:58:12Z</time>
      </trkpt>
      <trkpt lat="45.10117" lon="0.37019">
        <ele>107.32</ele>
        <time>2015-06-19T14:58:24Z</time>
      </trkpt>
      <trkpt lat="45.10116" lon="0.37014">
        <ele>106.84</ele>
        <time>2015-06-19T14:58:53Z</time>
      </trkpt>
      <trkpt lat="45.10116" lon="0.37011">
        <ele>106.84</ele>
        <time>2015-06-19T14:59:22Z</time>
      </trkpt>
      <trkpt lat="45.10115" lon="0.37011">
        <ele>106.36</ele>
        <time>2015-06-19T14:59:52Z</time>
      </trkpt>
      <trkpt lat="45.10112" lon="0.37011">
        <ele>106.36</ele>
        <time>2015-06-19T15:00:20Z</time>
      </trkpt>
      <trkpt lat="45.10114" lon="0.3701">
        <ele>106.36</ele>
        <time>2015-06-19T15:00:54Z</time>
      </trkpt>
      <trkpt lat="45.10113" lon="0.37012">
        <ele>106.36</ele>
        <time>2015-06-19T15:01:35Z</time>
      </trkpt>
      <trkpt lat="45.10111" lon="0.37016">
        <ele>106.36</ele>
        <time>2015-06-19T15:02:11Z</time>
      </trkpt>
      <trkpt lat="45.10111" lon="0.37019">
        <ele>106.84</ele>
        <time>2015-06-19T15:02:42Z</time>
      </trkpt>
      <trkpt lat="45.10112" lon="0.37016">
        <ele>107.81</ele>
        <time>2015-06-19T15:03:22Z</time>
      </trkpt>
      <trkpt lat="45.10114" lon="0.37013">
        <ele>108.29</ele>
        <time>2015-06-19T15:03:52Z</time>
      </trkpt>
      <trkpt lat="45.10116" lon="0.37017">
        <ele>109.25</ele>
        <time>2015-06-19T15:04:19Z</time>
      </trkpt>
      <trkpt lat="45.10114" lon="0.37013">
        <ele>109.25</ele>
        <time>2015-06-19T15:04:52Z</time>
      </trkpt>
      <trkpt lat="45.10115" lon="0.37009">
        <ele>109.25</ele>
        <time>2015-06-19T15:05:25Z</time>
      </trkpt>
      <trkpt lat="45.10114" lon="0.37012">
        <ele>108.29</ele>
        <time>2015-06-19T15:06:08Z</time>
      </trkpt>
      <trkpt lat="45.10118" lon="0.3702">
        <ele>108.29</ele>
        <time>2015-06-19T15:06:36Z</time>
      </trkpt>
      <trkpt lat="45.10116" lon="0.37018">
        <ele>108.77</ele>
        <time>2015-06-19T15:07:00Z</time>
      </trkpt>
      <trkpt lat="45.10117" lon="0.37013">
        <ele>108.77</ele>
        <time>2015-06-19T15:07:30Z</time>
      </trkpt>
      <trkpt lat="45.10115" lon="0.37012">
        <ele>108.77</ele>
        <time>2015-06-19T15:07:52Z</time>
      </trkpt>
      <trkpt lat="45.10117" lon="0.37021">
        <ele>108.77</ele>
        <time>2015-06-19T15:08:05Z</time>
      </trkpt>
      <trkpt lat="45.10117" lon="0.37021">
        <ele>110.21</ele>
        <time>2015-06-19T15:08:07Z</time>
      </trkpt>
      <trkpt lat="45.10116" lon="0.37023">
        <ele>110.21</ele>
        <time>2015-06-19T15:08:24Z</time>
      </trkpt>
      <trkpt lat="45.10113" lon="0.3702">
        <ele>110.21</ele>
        <time>2015-06-19T15:08:50Z</time>
      </trkpt>
      <trkpt lat="45.10115" lon="0.37021">
        <ele>110.21</ele>
        <time>2015-06-19T15:09:12Z</time>
      </trkpt>
      <trkpt lat="45.10114" lon="0.3702">
        <ele>110.21</ele>
        <time>2015-06-19T15:09:31Z</time>
      </trkpt>
      <trkpt lat="45.10115" lon="0.37023">
        <ele>109.25</ele>
        <time>2015-06-19T15:09:48Z</time>
      </trkpt>
      <trkpt lat="45.10116" lon="0.37024">
        <ele>109.25</ele>
        <time>2015-06-19T15:10:06Z</time>
      </trkpt>
      <trkpt lat="45.10114" lon="0.37029">
        <ele>109.25</ele>
        <time>2015-06-19T15:10:33Z</time>
      </trkpt>
      <trkpt lat="45.10114" lon="0.3703">
        <ele>109.25</ele>
        <time>2015-06-19T15:10:37Z</time>
      </trkpt>
      <trkpt lat="45.10107" lon="0.37041">
        <ele>109.25</ele>
        <time>2015-06-19T15:10:52Z</time>
      </trkpt>
      <trkpt lat="45.10101" lon="0.37045">
        <ele>109.25</ele>
        <time>2015-06-19T15:11:03Z</time>
      </trkpt>
      <trkpt lat="45.10097" lon="0.37049">
        <ele>107.81</ele>
        <time>2015-06-19T15:11:15Z</time>
      </trkpt>
      <trkpt lat="45.10094" lon="0.37047">
        <ele>107.32</ele>
        <time>2015-06-19T15:11:27Z</time>
      </trkpt>
      <trkpt lat="45.10094" lon="0.37049">
        <ele>107.32</ele>
        <time>2015-06-19T15:11:42Z</time>
      </trkpt>
      <trkpt lat="45.10091" lon="0.37051">
        <ele>107.32</ele>
        <time>2015-06-19T15:11:59Z</time>
      </trkpt>
      <trkpt lat="45.10091" lon="0.37046">
        <ele>108.77</ele>
        <time>2015-06-19T15:12:12Z</time>
      </trkpt>
      <trkpt lat="45.1009" lon="0.37044">
        <ele>108.77</ele>
        <time>2015-06-19T15:12:28Z</time>
      </trkpt>
      <trkpt lat="45.10092" lon="0.37047">
        <ele>108.77</ele>
        <time>2015-06-19T15:12:44Z</time>
      </trkpt>
      <trkpt lat="45.10092" lon="0.37049">
        <ele>107.32</ele>
        <time>2015-06-19T15:12:51Z</time>
      </trkpt>
      <trkpt lat="45.10094" lon="0.37053">
        <ele>107.32</ele>
        <time>2015-06-19T15:13:05Z</time>
      </trkpt>
      <trkpt lat="45.10091" lon="0.3705">
        <ele>107.32</ele>
        <time>2015-06-19T15:13:23Z</time>
      </trkpt>
      <trkpt lat="45.1009" lon="0.37045">
        <ele>107.32</ele>
        <time>2015-06-19T15:13:40Z</time>
      </trkpt>
      <trkpt lat="45.10091" lon="0.37048">
        <ele>107.32</ele>
        <time>2015-06-19T15:13:56Z</time>
      </trkpt>
      <trkpt lat="45.10091" lon="0.37052">
        <ele>106.84</ele>
        <time>2015-06-19T15:14:08Z</time>
      </trkpt>
      <trkpt lat="45.10092" lon="0.37051">
        <ele>106.84</ele>
        <time>2015-06-19T15:14:26Z</time>
      </trkpt>
      <trkpt lat="45.10094" lon="0.3705">
        <ele>106.84</ele>
        <time>2015-06-19T15:14:47Z</time>
      </trkpt>
      <trkpt lat="45.10091" lon="0.37048">
        <ele>106.84</ele>
        <time>2015-06-19T15:15:12Z</time>
      </trkpt>
      <trkpt lat="45.10094" lon="0.37045">
        <ele>106.84</ele>
        <time>2015-06-19T15:15:35Z</time>
      </trkpt>
      <trkpt lat="45.10095" lon="0.37045">
        <ele>107.81</ele>
        <time>2015-06-19T15:15:51Z</time>
      </trkpt>
      <trkpt lat="45.10092" lon="0.37047">
        <ele>108.29</ele>
        <time>2015-06-19T15:16:06Z</time>
      </trkpt>
      <trkpt lat="45.1009" lon="0.37052">
        <ele>106.84</ele>
        <time>2015-06-19T15:16:16Z</time>
      </trkpt>
      <trkpt lat="45.10087" lon="0.37057">
        <ele>106.36</ele>
        <time>2015-06-19T15:16:28Z</time>
      </trkpt>
      <trkpt lat="45.10088" lon="0.37057">
        <ele>106.36</ele>
        <time>2015-06-19T15:16:41Z</time>
      </trkpt>
      <trkpt lat="45.10092" lon="0.37046">
        <ele>108.29</ele>
        <time>2015-06-19T15:16:55Z</time>
      </trkpt>
      <trkpt lat="45.10092" lon="0.37044">
        <ele>108.29</ele>
        <time>2015-06-19T15:17:11Z</time>
      </trkpt>
      <trkpt lat="45.10088" lon="0.3705">
        <ele>108.29</ele>
        <time>2015-06-19T15:17:34Z</time>
      </trkpt>
      <trkpt lat="45.10093" lon="0.37048">
        <ele>107.81</ele>
        <time>2015-06-19T15:17:57Z</time>
      </trkpt>
      <trkpt lat="45.10089" lon="0.37042">
        <ele>107.81</ele>
        <time>2015-06-19T15:18:26Z</time>
      </trkpt>
      <trkpt lat="45.10092" lon="0.37035">
        <ele>107.81</ele>
        <time>2015-06-19T15:18:48Z</time>
      </trkpt>
      <trkpt lat="45.10094" lon="0.37043">
        <ele>107.81</ele>
        <time>2015-06-19T15:19:06Z</time>
      </trkpt>
      <trkpt lat="45.10101" lon="0.37043">
        <ele>109.25</ele>
        <time>2015-06-19T15:19:18Z</time>
      </trkpt>
      <trkpt lat="45.10104" lon="0.37046">
        <ele>109.25</ele>
        <time>2015-06-19T15:19:22Z</time>
      </trkpt>
      <trkpt lat="45.10106" lon="0.37065">
        <ele>107.32</ele>
        <time>2015-06-19T15:19:38Z</time>
      </trkpt>
      <trkpt lat="45.10106" lon="0.37065">
        <ele>107.32</ele>
        <time>2015-06-19T15:19:39Z</time>
      </trkpt>
      <trkpt lat="45.10106" lon="0.37067">
        <ele>108.77</ele>
        <time>2015-06-19T15:19:41Z</time>
      </trkpt>
      <trkpt lat="45.10106" lon="0.37069">
        <ele>107.32</ele>
        <time>2015-06-19T15:19:48Z</time>
      </trkpt>
      <trkpt lat="45.10105" lon="0.37087">
        <ele>107.32</ele>
        <time>2015-06-19T15:20:10Z</time>
      </trkpt>
      <trkpt lat="45.10104" lon="0.37106">
        <ele>107.32</ele>
        <time>2015-06-19T15:20:24Z</time>
      </trkpt>
      <trkpt lat="45.10111" lon="0.37131">
        <ele>107.32</ele>
        <time>2015-06-19T15:20:40Z</time>
      </trkpt>
      <trkpt lat="45.10118" lon="0.37143">
        <ele>109.25</ele>
        <time>2015-06-19T15:20:49Z</time>
      </trkpt>
      <trkpt lat="45.10128" lon="0.37158">
        <ele>109.25</ele>
        <time>2015-06-19T15:21:03Z</time>
      </trkpt>
      <trkpt lat="45.10135" lon="0.37175">
        <ele>109.25</ele>
        <time>2015-06-19T15:21:17Z</time>
      </trkpt>
      <trkpt lat="45.10139" lon="0.37193">
        <ele>109.25</ele>
        <time>2015-06-19T15:21:32Z</time>
      </trkpt>
      <trkpt lat="45.1014" lon="0.37201">
        <ele>109.25</ele>
        <time>2015-06-19T15:21:37Z</time>
      </trkpt>
      <trkpt lat="45.10141" lon="0.37233">
        <ele>109.25</ele>
        <time>2015-06-19T15:21:54Z</time>
      </trkpt>
      <trkpt lat="45.10139" lon="0.37249">
        <ele>109.25</ele>
        <time>2015-06-19T15:22:09Z</time>
      </trkpt>
      <trkpt lat="45.10137" lon="0.37258">
        <ele>109.25</ele>
        <time>2015-06-19T15:22:26Z</time>
      </trkpt>
      <trkpt lat="45.10138" lon="0.37253">
        <ele>109.25</ele>
        <time>2015-06-19T15:22:42Z</time>
      </trkpt>
      <trkpt lat="45.10136" lon="0.37255">
        <ele>108.77</ele>
        <time>2015-06-19T15:23:06Z</time>
      </trkpt>
      <trkpt lat="45.10135" lon="0.37258">
        <ele>108.77</ele>
        <time>2015-06-19T15:23:32Z</time>
      </trkpt>
      <trkpt lat="45.10136" lon="0.37265">
        <ele>108.77</ele>
        <time>2015-06-19T15:24:03Z</time>
      </trkpt>
      <trkpt lat="45.10134" lon="0.37263">
        <ele>109.73</ele>
        <time>2015-06-19T15:24:28Z</time>
      </trkpt>
      <trkpt lat="45.10134" lon="0.37264">
        <ele>109.73</ele>
        <time>2015-06-19T15:24:52Z</time>
      </trkpt>
      <trkpt lat="45.10134" lon="0.37263">
        <ele>108.77</ele>
        <time>2015-06-19T15:25:26Z</time>
      </trkpt>
      <trkpt lat="45.10134" lon="0.37258">
        <ele>108.77</ele>
        <time>2015-06-19T15:25:45Z</time>
      </trkpt>
      <trkpt lat="45.10136" lon="0.37265">
        <ele>108.29</ele>
        <time>2015-06-19T15:26:15Z</time>
      </trkpt>
      <trkpt lat="45.10139" lon="0.37259">
        <ele>107.81</ele>
        <time>2015-06-19T15:26:52Z</time>
      </trkpt>
      <trkpt lat="45.10137" lon="0.37258">
        <ele>107.81</ele>
        <time>2015-06-19T15:27:18Z</time>
      </trkpt>
      <trkpt lat="45.10136" lon="0.37261">
        <ele>107.81</ele>
        <time>2015-06-19T15:27:32Z</time>
      </trkpt>
      <trkpt lat="45.10137" lon="0.37276">
        <ele>107.81</ele>
        <time>2015-06-19T15:27:47Z</time>
      </trkpt>
      <trkpt lat="45.10137" lon="0.37295">
        <ele>107.81</ele>
        <time>2015-06-19T15:28:01Z</time>
      </trkpt>
      <trkpt lat="45.10138" lon="0.37316">
        <ele>107.81</ele>
        <time>2015-06-19T15:28:15Z</time>
      </trkpt>
      <trkpt lat="45.10138" lon="0.37339">
        <ele>108.77</ele>
        <time>2015-06-19T15:28:30Z</time>
      </trkpt>
      <trkpt lat="45.10138" lon="0.37365">
        <ele>109.25</ele>
        <time>2015-06-19T15:28:45Z</time>
      </trkpt>
      <trkpt lat="45.1014" lon="0.37384">
        <ele>109.73</ele>
        <time>2015-06-19T15:28:57Z</time>
      </trkpt>
      <trkpt lat="45.10142" lon="0.374">
        <ele>110.21</ele>
        <time>2015-06-19T15:29:10Z</time>
      </trkpt>
      <trkpt lat="45.10141" lon="0.37422">
        <ele>110.21</ele>
        <time>2015-06-19T15:29:23Z</time>
      </trkpt>
      <trkpt lat="45.10141" lon="0.37435">
        <ele>110.69</ele>
        <time>2015-06-19T15:29:31Z</time>
      </trkpt>
      <trkpt lat="45.10141" lon="0.37456">
        <ele>111.17</ele>
        <time>2015-06-19T15:29:46Z</time>
      </trkpt>
      <trkpt lat="45.10141" lon="0.37462">
        <ele>111.17</ele>
        <time>2015-06-19T15:29:51Z</time>
      </trkpt>
      <trkpt lat="45.10143" lon="0.37475">
        <ele>111.17</ele>
        <time>2015-06-19T15:30:03Z</time>
      </trkpt>
      <trkpt lat="45.10143" lon="0.37496">
        <ele>111.17</ele>
        <time>2015-06-19T15:30:16Z</time>
      </trkpt>
      <trkpt lat="45.10146" lon="0.37509">
        <ele>111.17</ele>
        <time>2015-06-19T15:30:25Z</time>
      </trkpt>
      <trkpt lat="45.10149" lon="0.37528">
        <ele>111.17</ele>
        <time>2015-06-19T15:30:39Z</time>
      </trkpt>
      <trkpt lat="45.10151" lon="0.3754">
        <ele>111.17</ele>
        <time>2015-06-19T15:30:56Z</time>
      </trkpt>
      <trkpt lat="45.10152" lon="0.37548">
        <ele>110.69</ele>
        <time>2015-06-19T15:31:17Z</time>
      </trkpt>
      <trkpt lat="45.10149" lon="0.37552">
        <ele>110.69</ele>
        <time>2015-06-19T15:31:32Z</time>
      </trkpt>
      <trkpt lat="45.10146" lon="0.37552">
        <ele>110.69</ele>
        <time>2015-06-19T15:31:47Z</time>
      </trkpt>
      <trkpt lat="45.10148" lon="0.3755">
        <ele>110.69</ele>
        <time>2015-06-19T15:32:01Z</time>
      </trkpt>
      <trkpt lat="45.10149" lon="0.37547">
        <ele>110.69</ele>
        <time>2015-06-19T15:32:16Z</time>
      </trkpt>
      <trkpt lat="45.10149" lon="0.37545">
        <ele>110.69</ele>
        <time>2015-06-19T15:32:27Z</time>
      </trkpt>
      <trkpt lat="45.10144" lon="0.37549">
        <ele>110.69</ele>
        <time>2015-06-19T15:32:52Z</time>
      </trkpt>
      <trkpt lat="45.1015" lon="0.37544">
        <ele>110.69</ele>
        <time>2015-06-19T15:33:06Z</time>
      </trkpt>
      <trkpt lat="45.10151" lon="0.37547">
        <ele>110.69</ele>
        <time>2015-06-19T15:33:21Z</time>
      </trkpt>
      <trkpt lat="45.10147" lon="0.37545">
        <ele>111.17</ele>
        <time>2015-06-19T15:33:36Z</time>
      </trkpt>
      <trkpt lat="45.1015" lon="0.3754">
        <ele>111.17</ele>
        <time>2015-06-19T15:33:57Z</time>
      </trkpt>
      <trkpt lat="45.10152" lon="0.37545">
        <ele>111.65</ele>
        <time>2015-06-19T15:34:16Z</time>
      </trkpt>
      <trkpt lat="45.10151" lon="0.37551">
        <ele>111.65</ele>
        <time>2015-06-19T15:34:40Z</time>
      </trkpt>
      <trkpt lat="45.10145" lon="0.37543">
        <ele>111.65</ele>
        <time>2015-06-19T15:34:58Z</time>
      </trkpt>
      <trkpt lat="45.10149" lon="0.37554">
        <ele>112.13</ele>
        <time>2015-06-19T15:35:17Z</time>
      </trkpt>
      <trkpt lat="45.10147" lon="0.37549">
        <ele>112.13</ele>
        <time>2015-06-19T15:35:30Z</time>
      </trkpt>
      <trkpt lat="45.10147" lon="0.37545">
        <ele>112.13</ele>
        <time>2015-06-19T15:35:44Z</time>
      </trkpt>
      <trkpt lat="45.10145" lon="0.37534">
        <ele>112.13</ele>
        <time>2015-06-19T15:35:59Z</time>
      </trkpt>
      <trkpt lat="45.1015" lon="0.37535">
        <ele>112.13</ele>
        <time>2015-06-19T15:36:16Z</time>
      </trkpt>
      <trkpt lat="45.10153" lon="0.37543">
        <ele>112.13</ele>
        <time>2015-06-19T15:36:30Z</time>
      </trkpt>
      <trkpt lat="45.10152" lon="0.37542">
        <ele>112.61</ele>
        <time>2015-06-19T15:36:42Z</time>
      </trkpt>
      <trkpt lat="45.10147" lon="0.37542">
        <ele>112.61</ele>
        <time>2015-06-19T15:36:55Z</time>
      </trkpt>
      <trkpt lat="45.10148" lon="0.37542">
        <ele>112.61</ele>
        <time>2015-06-19T15:37:10Z</time>
      </trkpt>
      <trkpt lat="45.10151" lon="0.37548">
        <ele>112.61</ele>
        <time>2015-06-19T15:37:26Z</time>
      </trkpt>
      <trkpt lat="45.1015" lon="0.3755">
        <ele>112.61</ele>
        <time>2015-06-19T15:37:42Z</time>
      </trkpt>
      <trkpt lat="45.10148" lon="0.3754">
        <ele>112.61</ele>
        <time>2015-06-19T15:38:10Z</time>
      </trkpt>
      <trkpt lat="45.10145" lon="0.3754">
        <ele>112.61</ele>
        <time>2015-06-19T15:38:51Z</time>
      </trkpt>
      <trkpt lat="45.10145" lon="0.3754">
        <ele>112.61</ele>
        <time>2015-06-19T15:39:29Z</time>
      </trkpt>
      <trkpt lat="45.10147" lon="0.37538">
        <ele>112.61</ele>
        <time>2015-06-19T15:40:13Z</time>
      </trkpt>
      <trkpt lat="45.10146" lon="0.37539">
        <ele>112.61</ele>
        <time>2015-06-19T15:40:41Z</time>
      </trkpt>
      <trkpt lat="45.10147" lon="0.37544">
        <ele>112.61</ele>
        <time>2015-06-19T15:41:24Z</time>
      </trkpt>
      <trkpt lat="45.10141" lon="0.37541">
        <ele>112.61</ele>
        <time>2015-06-19T15:41:59Z</time>
      </trkpt>
      <trkpt lat="45.10142" lon="0.37534">
        <ele>113.09</ele>
        <time>2015-06-19T15:42:27Z</time>
      </trkpt>
      <trkpt lat="45.10142" lon="0.3753">
        <ele>113.09</ele>
        <time>2015-06-19T15:42:47Z</time>
      </trkpt>
      <trkpt lat="45.10145" lon="0.37538">
        <ele>113.09</ele>
        <time>2015-06-19T15:43:06Z</time>
      </trkpt>
      <trkpt lat="45.10142" lon="0.37538">
        <ele>113.09</ele>
        <time>2015-06-19T15:43:19Z</time>
      </trkpt>
      <trkpt lat="45.10146" lon="0.37538">
        <ele>113.09</ele>
        <time>2015-06-19T15:43:34Z</time>
      </trkpt>
      <trkpt lat="45.10145" lon="0.37539">
        <ele>113.09</ele>
        <time>2015-06-19T15:43:47Z</time>
      </trkpt>
      <trkpt lat="45.10149" lon="0.37546">
        <ele>113.09</ele>
        <time>2015-06-19T15:44:01Z</time>
      </trkpt>
      <trkpt lat="45.10148" lon="0.37545">
        <ele>113.09</ele>
        <time>2015-06-19T15:44:21Z</time>
      </trkpt>
      <trkpt lat="45.10148" lon="0.37547">
        <ele>113.57</ele>
        <time>2015-06-19T15:44:40Z</time>
      </trkpt>
      <trkpt lat="45.10145" lon="0.37551">
        <ele>113.57</ele>
        <time>2015-06-19T15:44:58Z</time>
      </trkpt>
      <trkpt lat="45.10147" lon="0.37542">
        <ele>113.57</ele>
        <time>2015-06-19T15:45:10Z</time>
      </trkpt>
      <trkpt lat="45.10149" lon="0.37536">
        <ele>113.57</ele>
        <time>2015-06-19T15:45:27Z</time>
      </trkpt>
      <trkpt lat="45.10149" lon="0.37538">
        <ele>113.57</ele>
        <time>2015-06-19T15:45:46Z</time>
      </trkpt>
      <trkpt lat="45.10142" lon="0.37531">
        <ele>113.57</ele>
        <time>2015-06-19T15:46:02Z</time>
      </trkpt>
      <trkpt lat="45.1014" lon="0.37532">
        <ele>113.57</ele>
        <time>2015-06-19T15:46:16Z</time>
      </trkpt>
      <trkpt lat="45.10143" lon="0.37527">
        <ele>113.57</ele>
        <time>2015-06-19T15:46:29Z</time>
      </trkpt>
      <trkpt lat="45.10148" lon="0.37539">
        <ele>113.57</ele>
        <time>2015-06-19T15:46:42Z</time>
      </trkpt>
      <trkpt lat="45.10143" lon="0.37542">
        <ele>113.57</ele>
        <time>2015-06-19T15:46:56Z</time>
      </trkpt>
      <trkpt lat="45.10141" lon="0.37541">
        <ele>113.57</ele>
        <time>2015-06-19T15:46:59Z</time>
      </trkpt>
      <trkpt lat="45.10138" lon="0.37543">
        <ele>113.57</ele>
        <time>2015-06-19T15:47:14Z</time>
      </trkpt>
      <trkpt lat="45.10139" lon="0.3755">
        <ele>113.57</ele>
        <time>2015-06-19T15:47:29Z</time>
      </trkpt>
      <trkpt lat="45.10145" lon="0.37551">
        <ele>113.57</ele>
        <time>2015-06-19T15:47:45Z</time>
      </trkpt>
      <trkpt lat="45.10147" lon="0.37551">
        <ele>113.57</ele>
        <time>2015-06-19T15:47:58Z</time>
      </trkpt>
      <trkpt lat="45.10148" lon="0.37551">
        <ele>113.57</ele>
        <time>2015-06-19T15:48:11Z</time>
      </trkpt>
      <trkpt lat="45.10147" lon="0.37548">
        <ele>113.57</ele>
        <time>2015-06-19T15:48:27Z</time>
      </trkpt>
      <trkpt lat="45.1015" lon="0.37549">
        <ele>112.13</ele>
        <time>2015-06-19T15:48:44Z</time>
      </trkpt>
      <trkpt lat="45.10149" lon="0.37553">
        <ele>113.57</ele>
        <time>2015-06-19T15:49:10Z</time>
      </trkpt>
      <trkpt lat="45.10153" lon="0.37553">
        <ele>113.57</ele>
        <time>2015-06-19T15:49:32Z</time>
      </trkpt>
      <trkpt lat="45.10153" lon="0.3755">
        <ele>113.57</ele>
        <time>2015-06-19T15:49:59Z</time>
      </trkpt>
      <trkpt lat="45.10151" lon="0.37552">
        <ele>113.57</ele>
        <time>2015-06-19T15:50:17Z</time>
      </trkpt>
      <trkpt lat="45.10152" lon="0.37549">
        <ele>112.61</ele>
        <time>2015-06-19T15:50:36Z</time>
      </trkpt>
      <trkpt lat="45.10154" lon="0.37553">
        <ele>112.61</ele>
        <time>2015-06-19T15:50:54Z</time>
      </trkpt>
      <trkpt lat="45.10156" lon="0.37562">
        <ele>112.61</ele>
        <time>2015-06-19T15:51:12Z</time>
      </trkpt>
      <trkpt lat="45.10157" lon="0.37583">
        <ele>113.09</ele>
        <time>2015-06-19T15:51:30Z</time>
      </trkpt>
      <trkpt lat="45.10159" lon="0.37603">
        <ele>112.61</ele>
        <time>2015-06-19T15:51:49Z</time>
      </trkpt>
      <trkpt lat="45.10159" lon="0.3761">
        <ele>112.13</ele>
        <time>2015-06-19T15:51:57Z</time>
      </trkpt>
      <trkpt lat="45.10161" lon="0.37626">
        <ele>112.13</ele>
        <time>2015-06-19T15:52:13Z</time>
      </trkpt>
      <trkpt lat="45.10162" lon="0.37635">
        <ele>111.65</ele>
        <time>2015-06-19T15:52:31Z</time>
      </trkpt>
      <trkpt lat="45.1016" lon="0.37639">
        <ele>113.09</ele>
        <time>2015-06-19T15:52:40Z</time>
      </trkpt>
      <trkpt lat="45.10157" lon="0.37633">
        <ele>113.09</ele>
        <time>2015-06-19T15:52:56Z</time>
      </trkpt>
      <trkpt lat="45.10157" lon="0.37609">
        <ele>113.09</ele>
        <time>2015-06-19T15:53:08Z</time>
      </trkpt>
      <trkpt lat="45.10153" lon="0.3757">
        <ele>114.05</ele>
        <time>2015-06-19T15:53:23Z</time>
      </trkpt>
      <trkpt lat="45.10151" lon="0.37557">
        <ele>114.53</ele>
        <time>2015-06-19T15:53:34Z</time>
      </trkpt>
      <trkpt lat="45.10149" lon="0.37542">
        <ele>114.53</ele>
        <time>2015-06-19T15:53:48Z</time>
      </trkpt>
      <trkpt lat="45.10149" lon="0.37539">
        <ele>115.01</ele>
        <time>2015-06-19T15:54:00Z</time>
      </trkpt>
      <trkpt lat="45.10149" lon="0.37556">
        <ele>115.01</ele>
        <time>2015-06-19T15:54:13Z</time>
      </trkpt>
      <trkpt lat="45.10152" lon="0.37563">
        <ele>113.09</ele>
        <time>2015-06-19T15:54:19Z</time>
      </trkpt>
      <trkpt lat="45.10157" lon="0.37586">
        <ele>113.09</ele>
        <time>2015-06-19T15:54:35Z</time>
      </trkpt>
      <trkpt lat="45.10163" lon="0.37617">
        <ele>112.61</ele>
        <time>2015-06-19T15:54:50Z</time>
      </trkpt>
      <trkpt lat="45.10165" lon="0.37646">
        <ele>112.61</ele>
        <time>2015-06-19T15:55:08Z</time>
      </trkpt>
      <trkpt lat="45.10164" lon="0.3767">
        <ele>112.13</ele>
        <time>2015-06-19T15:55:20Z</time>
      </trkpt>
      <trkpt lat="45.10159" lon="0.37685">
        <ele>111.17</ele>
        <time>2015-06-19T15:55:34Z</time>
      </trkpt>
      <trkpt lat="45.10146" lon="0.37698">
        <ele>110.21</ele>
        <time>2015-06-19T15:55:48Z</time>
      </trkpt>
      <trkpt lat="45.10139" lon="0.37708">
        <ele>109.25</ele>
        <time>2015-06-19T15:55:57Z</time>
      </trkpt>
      <trkpt lat="45.10134" lon="0.37713">
        <ele>109.25</ele>
        <time>2015-06-19T15:56:02Z</time>
      </trkpt>
      <trkpt lat="45.10129" lon="0.37718">
        <ele>109.25</ele>
        <time>2015-06-19T15:56:06Z</time>
      </trkpt>
      <trkpt lat="45.10126" lon="0.37722">
        <ele>109.25</ele>
        <time>2015-06-19T15:56:09Z</time>
      </trkpt>
      <trkpt lat="45.10108" lon="0.37748">
        <ele>108.77</ele>
        <time>2015-06-19T15:56:26Z</time>
      </trkpt>
      <trkpt lat="45.10098" lon="0.37759">
        <ele>108.77</ele>
        <time>2015-06-19T15:56:40Z</time>
      </trkpt>
      <trkpt lat="45.10096" lon="0.37766">
        <ele>108.77</ele>
        <time>2015-06-19T15:56:54Z</time>
      </trkpt>
      <trkpt lat="45.10099" lon="0.37762">
        <ele>108.77</ele>
        <time>2015-06-19T15:57:03Z</time>
      </trkpt>
      <trkpt lat="45.1011" lon="0.37743">
        <ele>108.77</ele>
        <time>2015-06-19T15:57:18Z</time>
      </trkpt>
      <trkpt lat="45.10113" lon="0.3774">
        <ele>108.77</ele>
        <time>2015-06-19T15:57:22Z</time>
      </trkpt>
      <trkpt lat="45.10117" lon="0.37743">
        <ele>108.77</ele>
        <time>2015-06-19T15:57:26Z</time>
      </trkpt>
      <trkpt lat="45.10121" lon="0.3776">
        <ele>108.77</ele>
        <time>2015-06-19T15:57:38Z</time>
      </trkpt>
      <trkpt lat="45.10122" lon="0.37766">
        <ele>108.77</ele>
        <time>2015-06-19T15:57:42Z</time>
      </trkpt>
      <trkpt lat="45.10122" lon="0.37784">
        <ele>108.77</ele>
        <time>2015-06-19T15:57:57Z</time>
      </trkpt>
      <trkpt lat="45.10126" lon="0.37789">
        <ele>108.77</ele>
        <time>2015-06-19T15:58:14Z</time>
      </trkpt>
      <trkpt lat="45.10128" lon="0.37791">
        <ele>108.77</ele>
        <time>2015-06-19T15:58:33Z</time>
      </trkpt>
      <trkpt lat="45.10125" lon="0.37789">
        <ele>109.25</ele>
        <time>2015-06-19T15:58:49Z</time>
      </trkpt>
      <trkpt lat="45.10124" lon="0.3779">
        <ele>109.25</ele>
        <time>2015-06-19T15:59:05Z</time>
      </trkpt>
      <trkpt lat="45.10126" lon="0.37784">
        <ele>109.25</ele>
        <time>2015-06-19T15:59:14Z</time>
      </trkpt>
      <trkpt lat="45.10126" lon="0.37788">
        <ele>108.29</ele>
        <time>2015-06-19T15:59:29Z</time>
      </trkpt>
      <trkpt lat="45.10127" lon="0.37786">
        <ele>108.29</ele>
        <time>2015-06-19T15:59:50Z</time>
      </trkpt>
      <trkpt lat="45.10128" lon="0.37782">
        <ele>109.73</ele>
        <time>2015-06-19T16:00:07Z</time>
      </trkpt>
      <trkpt lat="45.10129" lon="0.37779">
        <ele>109.73</ele>
        <time>2015-06-19T16:00:18Z</time>
      </trkpt>
      <trkpt lat="45.10126" lon="0.3778">
        <ele>109.73</ele>
        <time>2015-06-19T16:00:42Z</time>
      </trkpt>
      <trkpt lat="45.10128" lon="0.37783">
        <ele>110.21</ele>
        <time>2015-06-19T16:01:12Z</time>
      </trkpt>
      <trkpt lat="45.10127" lon="0.37782">
        <ele>110.69</ele>
        <time>2015-06-19T16:01:40Z</time>
      </trkpt>
      <trkpt lat="45.10123" lon="0.3778">
        <ele>109.25</ele>
        <time>2015-06-19T16:02:03Z</time>
      </trkpt>
      <trkpt lat="45.10124" lon="0.37785">
        <ele>110.21</ele>
        <time>2015-06-19T16:02:17Z</time>
      </trkpt>
      <trkpt lat="45.10123" lon="0.37789">
        <ele>110.21</ele>
        <time>2015-06-19T16:02:34Z</time>
      </trkpt>
      <trkpt lat="45.10125" lon="0.37802">
        <ele>108.77</ele>
        <time>2015-06-19T16:02:49Z</time>
      </trkpt>
      <trkpt lat="45.10118" lon="0.37817">
        <ele>107.81</ele>
        <time>2015-06-19T16:03:02Z</time>
      </trkpt>
      <trkpt lat="45.10113" lon="0.37831">
        <ele>107.81</ele>
        <time>2015-06-19T16:03:15Z</time>
      </trkpt>
      <trkpt lat="45.10108" lon="0.37838">
        <ele>107.81</ele>
        <time>2015-06-19T16:03:23Z</time>
      </trkpt>
      <trkpt lat="45.101" lon="0.37857">
        <ele>107.81</ele>
        <time>2015-06-19T16:03:39Z</time>
      </trkpt>
      <trkpt lat="45.10091" lon="0.3787">
        <ele>107.32</ele>
        <time>2015-06-19T16:03:52Z</time>
      </trkpt>
      <trkpt lat="45.10084" lon="0.37875">
        <ele>107.32</ele>
        <time>2015-06-19T16:04:09Z</time>
      </trkpt>
      <trkpt lat="45.10073" lon="0.3788">
        <ele>107.32</ele>
        <time>2015-06-19T16:04:23Z</time>
      </trkpt>
      <trkpt lat="45.10067" lon="0.3788">
        <ele>107.32</ele>
        <time>2015-06-19T16:04:38Z</time>
      </trkpt>
      <trkpt lat="45.10058" lon="0.3788">
        <ele>107.32</ele>
        <time>2015-06-19T16:04:51Z</time>
      </trkpt>
      <trkpt lat="45.10055" lon="0.37882">
        <ele>107.32</ele>
        <time>2015-06-19T16:04:55Z</time>
      </trkpt>
      <trkpt lat="45.10048" lon="0.37889">
        <ele>107.32</ele>
        <time>2015-06-19T16:05:06Z</time>
      </trkpt>
      <trkpt lat="45.10051" lon="0.379">
        <ele>107.32</ele>
        <time>2015-06-19T16:05:18Z</time>
      </trkpt>
      <trkpt lat="45.10052" lon="0.37906">
        <ele>107.32</ele>
        <time>2015-06-19T16:05:30Z</time>
      </trkpt>
      <trkpt lat="45.1005" lon="0.37916">
        <ele>107.32</ele>
        <time>2015-06-19T16:05:42Z</time>
      </trkpt>
      <trkpt lat="45.10047" lon="0.37917">
        <ele>106.84</ele>
        <time>2015-06-19T16:05:55Z</time>
      </trkpt>
      <trkpt lat="45.10041" lon="0.37926">
        <ele>106.84</ele>
        <time>2015-06-19T16:06:10Z</time>
      </trkpt>
      <trkpt lat="45.10036" lon="0.37929">
        <ele>106.36</ele>
        <time>2015-06-19T16:06:21Z</time>
      </trkpt>
      <trkpt lat="45.10029" lon="0.37929">
        <ele>106.36</ele>
        <time>2015-06-19T16:06:34Z</time>
      </trkpt>
      <trkpt lat="45.1002" lon="0.3793">
        <ele>106.36</ele>
        <time>2015-06-19T16:06:48Z</time>
      </trkpt>
      <trkpt lat="45.10012" lon="0.37935">
        <ele>105.88</ele>
        <time>2015-06-19T16:07:01Z</time>
      </trkpt>
      <trkpt lat="45.10001" lon="0.3794">
        <ele>104.92</ele>
        <time>2015-06-19T16:07:15Z</time>
      </trkpt>
      <trkpt lat="45.09996" lon="0.37934">
        <ele>103.96</ele>
        <time>2015-06-19T16:07:31Z</time>
      </trkpt>
      <trkpt lat="45.09993" lon="0.37935">
        <ele>103</ele>
        <time>2015-06-19T16:07:50Z</time>
      </trkpt>
      <trkpt lat="45.09992" lon="0.37934">
        <ele>103</ele>
        <time>2015-06-19T16:08:23Z</time>
      </trkpt>
      <trkpt lat="45.09989" lon="0.37933">
        <ele>102.04</ele>
        <time>2015-06-19T16:08:41Z</time>
      </trkpt>
      <trkpt lat="45.09987" lon="0.37933">
        <ele>101.08</ele>
        <time>2015-06-19T16:08:53Z</time>
      </trkpt>
      <trkpt lat="45.09993" lon="0.37935">
        <ele>103.48</ele>
        <time>2015-06-19T16:09:07Z</time>
      </trkpt>
      <trkpt lat="45.09993" lon="0.37935">
        <ele>103.48</ele>
        <time>2015-06-19T16:09:34Z</time>
      </trkpt>
      <trkpt lat="45.09992" lon="0.37931">
        <ele>102.04</ele>
        <time>2015-06-19T16:09:58Z</time>
      </trkpt>
      <trkpt lat="45.09992" lon="0.37931">
        <ele>102.04</ele>
        <time>2015-06-19T16:09:59Z</time>
      </trkpt>
      <trkpt lat="45.0999" lon="0.37928">
        <ele>101.08</ele>
        <time>2015-06-19T16:10:16Z</time>
      </trkpt>
      <trkpt lat="45.09989" lon="0.37928">
        <ele>101.08</ele>
        <time>2015-06-19T16:10:42Z</time>
      </trkpt>
      <trkpt lat="45.09995" lon="0.37909">
        <ele>101.08</ele>
        <time>2015-06-19T16:10:56Z</time>
      </trkpt>
      <trkpt lat="45.09996" lon="0.37907">
        <ele>103</ele>
        <time>2015-06-19T16:11:07Z</time>
      </trkpt>
      <trkpt lat="45.09998" lon="0.37908">
        <ele>103</ele>
        <time>2015-06-19T16:11:36Z</time>
      </trkpt>
      <trkpt lat="45.09998" lon="0.37908">
        <ele>102.04</ele>
        <time>2015-06-19T16:12:00Z</time>
      </trkpt>
      <trkpt lat="45.09994" lon="0.37908">
        <ele>102.52</ele>
        <time>2015-06-19T16:12:33Z</time>
      </trkpt>
      <trkpt lat="45.09997" lon="0.37905">
        <ele>102.52</ele>
        <time>2015-06-19T16:13:04Z</time>
      </trkpt>
      <trkpt lat="45.09996" lon="0.37907">
        <ele>102.52</ele>
        <time>2015-06-19T16:13:42Z</time>
      </trkpt>
      <trkpt lat="45.09995" lon="0.3791">
        <ele>103.96</ele>
        <time>2015-06-19T16:14:02Z</time>
      </trkpt>
      <trkpt lat="45.09993" lon="0.37911">
        <ele>102.52</ele>
        <time>2015-06-19T16:14:07Z</time>
      </trkpt>
      <trkpt lat="45.09995" lon="0.37909">
        <ele>103.96</ele>
        <time>2015-06-19T16:14:19Z</time>
      </trkpt>
      <trkpt lat="45.09995" lon="0.37914">
        <ele>103</ele>
        <time>2015-06-19T16:14:38Z</time>
      </trkpt>
      <trkpt lat="45.0999" lon="0.37926">
        <ele>103</ele>
        <time>2015-06-19T16:14:53Z</time>
      </trkpt>
      <trkpt lat="45.09983" lon="0.37937">
        <ele>102.04</ele>
        <time>2015-06-19T16:15:07Z</time>
      </trkpt>
      <trkpt lat="45.09981" lon="0.3794">
        <ele>102.04</ele>
        <time>2015-06-19T16:15:09Z</time>
      </trkpt>
      <trkpt lat="45.09977" lon="0.37947">
        <ele>101.56</ele>
        <time>2015-06-19T16:15:14Z</time>
      </trkpt>
      <trkpt lat="45.09971" lon="0.37953">
        <ele>101.08</ele>
        <time>2015-06-19T16:15:26Z</time>
      </trkpt>
      <trkpt lat="45.09957" lon="0.37967">
        <ele>100.11</ele>
        <time>2015-06-19T16:15:42Z</time>
      </trkpt>
      <trkpt lat="45.09957" lon="0.37967">
        <ele>100.11</ele>
        <time>2015-06-19T16:15:43Z</time>
      </trkpt>
      <trkpt lat="45.09939" lon="0.3798">
        <ele>99.63</ele>
        <time>2015-06-19T16:15:59Z</time>
      </trkpt>
      <trkpt lat="45.09927" lon="0.37987">
        <ele>98.67</ele>
        <time>2015-06-19T16:16:12Z</time>
      </trkpt>
      <trkpt lat="45.09917" lon="0.37993">
        <ele>99.63</ele>
        <time>2015-06-19T16:16:23Z</time>
      </trkpt>
      <trkpt lat="45.09909" lon="0.38002">
        <ele>98.19</ele>
        <time>2015-06-19T16:16:31Z</time>
      </trkpt>
      <trkpt lat="45.09894" lon="0.38019">
        <ele>97.71</ele>
        <time>2015-06-19T16:16:48Z</time>
      </trkpt>
      <trkpt lat="45.09877" lon="0.3804">
        <ele>97.23</ele>
        <time>2015-06-19T16:17:08Z</time>
      </trkpt>
      <trkpt lat="45.09869" lon="0.38051">
        <ele>96.75</ele>
        <time>2015-06-19T16:17:21Z</time>
      </trkpt>
      <trkpt lat="45.09862" lon="0.3806">
        <ele>95.79</ele>
        <time>2015-06-19T16:17:37Z</time>
      </trkpt>
      <trkpt lat="45.09863" lon="0.38063">
        <ele>95.79</ele>
        <time>2015-06-19T16:17:49Z</time>
      </trkpt>
      <trkpt lat="45.09861" lon="0.38061">
        <ele>95.79</ele>
        <time>2015-06-19T16:18:06Z</time>
      </trkpt>
      <trkpt lat="45.09863" lon="0.38063">
        <ele>95.79</ele>
        <time>2015-06-19T16:18:19Z</time>
      </trkpt>
      <trkpt lat="45.09855" lon="0.38059">
        <ele>97.23</ele>
        <time>2015-06-19T16:18:30Z</time>
      </trkpt>
      <trkpt lat="45.09857" lon="0.3806">
        <ele>97.23</ele>
        <time>2015-06-19T16:18:36Z</time>
      </trkpt>
      <trkpt lat="45.09862" lon="0.38062">
        <ele>95.79</ele>
        <time>2015-06-19T16:18:49Z</time>
      </trkpt>
      <trkpt lat="45.09865" lon="0.38061">
        <ele>96.75</ele>
        <time>2015-06-19T16:19:06Z</time>
      </trkpt>
      <trkpt lat="45.09866" lon="0.38064">
        <ele>96.75</ele>
        <time>2015-06-19T16:19:34Z</time>
      </trkpt>
      <trkpt lat="45.09862" lon="0.38065">
        <ele>95.79</ele>
        <time>2015-06-19T16:20:11Z</time>
      </trkpt>
      <trkpt lat="45.09862" lon="0.38061">
        <ele>95.31</ele>
        <time>2015-06-19T16:20:35Z</time>
      </trkpt>
      <trkpt lat="45.09866" lon="0.38064">
        <ele>95.31</ele>
        <time>2015-06-19T16:20:52Z</time>
      </trkpt>
      <trkpt lat="45.09866" lon="0.38062">
        <ele>95.31</ele>
        <time>2015-06-19T16:21:14Z</time>
      </trkpt>
      <trkpt lat="45.09863" lon="0.38064">
        <ele>95.31</ele>
        <time>2015-06-19T16:21:37Z</time>
      </trkpt>
      <trkpt lat="45.09864" lon="0.38064">
        <ele>95.31</ele>
        <time>2015-06-19T16:22:01Z</time>
      </trkpt>
      <trkpt lat="45.09862" lon="0.38064">
        <ele>96.27</ele>
        <time>2015-06-19T16:22:25Z</time>
      </trkpt>
      <trkpt lat="45.09866" lon="0.38063">
        <ele>96.27</ele>
        <time>2015-06-19T16:22:55Z</time>
      </trkpt>
      <trkpt lat="45.09868" lon="0.38066">
        <ele>95.31</ele>
        <time>2015-06-19T16:23:00Z</time>
      </trkpt>
      <trkpt lat="45.09864" lon="0.38061">
        <ele>96.27</ele>
        <time>2015-06-19T16:23:13Z</time>
      </trkpt>
      <trkpt lat="45.09865" lon="0.38061">
        <ele>96.27</ele>
        <time>2015-06-19T16:23:29Z</time>
      </trkpt>
      <trkpt lat="45.09865" lon="0.3806">
        <ele>96.27</ele>
        <time>2015-06-19T16:23:58Z</time>
      </trkpt>
      <trkpt lat="45.0986" lon="0.38059">
        <ele>95.31</ele>
        <time>2015-06-19T16:24:13Z</time>
      </trkpt>
      <trkpt lat="45.09853" lon="0.38064">
        <ele>94.35</ele>
        <time>2015-06-19T16:24:20Z</time>
      </trkpt>
      <trkpt lat="45.09844" lon="0.38075">
        <ele>93.87</ele>
        <time>2015-06-19T16:24:32Z</time>
      </trkpt>
      <trkpt lat="45.09836" lon="0.38093">
        <ele>91.46</ele>
        <time>2015-06-19T16:24:48Z</time>
      </trkpt>
      <trkpt lat="45.09828" lon="0.38104">
        <ele>90.02</ele>
        <time>2015-06-19T16:24:59Z</time>
      </trkpt>
      <trkpt lat="45.09821" lon="0.38117">
        <ele>88.58</ele>
        <time>2015-06-19T16:25:14Z</time>
      </trkpt>
      <trkpt lat="45.09812" lon="0.38136">
        <ele>86.66</ele>
        <time>2015-06-19T16:25:29Z</time>
      </trkpt>
      <trkpt lat="45.0981" lon="0.3814">
        <ele>86.66</ele>
        <time>2015-06-19T16:25:32Z</time>
      </trkpt>
      <trkpt lat="45.09802" lon="0.38166">
        <ele>84.73</ele>
        <time>2015-06-19T16:25:49Z</time>
      </trkpt>
      <trkpt lat="45.09792" lon="0.3819">
        <ele>83.29</ele>
        <time>2015-06-19T16:26:05Z</time>
      </trkpt>
      <trkpt lat="45.09784" lon="0.38211">
        <ele>81.85</ele>
        <time>2015-06-19T16:26:20Z</time>
      </trkpt>
      <trkpt lat="45.09779" lon="0.38229">
        <ele>80.89</ele>
        <time>2015-06-19T16:26:34Z</time>
      </trkpt>
      <trkpt lat="45.09782" lon="0.38228">
        <ele>80.89</ele>
        <time>2015-06-19T16:26:55Z</time>
      </trkpt>
      <trkpt lat="45.0978" lon="0.38229">
        <ele>80.89</ele>
        <time>2015-06-19T16:26:58Z</time>
      </trkpt>
      <trkpt lat="45.09767" lon="0.38226">
        <ele>80.89</ele>
        <time>2015-06-19T16:27:16Z</time>
      </trkpt>
      <trkpt lat="45.09761" lon="0.38225">
        <ele>80.41</ele>
        <time>2015-06-19T16:27:38Z</time>
      </trkpt>
      <trkpt lat="45.09761" lon="0.38225">
        <ele>80.41</ele>
        <time>2015-06-19T16:27:39Z</time>
      </trkpt>
      <trkpt lat="45.09751" lon="0.38219">
        <ele>79.93</ele>
        <time>2015-06-19T16:27:47Z</time>
      </trkpt>
      <trkpt lat="45.09743" lon="0.38216">
        <ele>79.45</ele>
        <time>2015-06-19T16:27:53Z</time>
      </trkpt>
      <trkpt lat="45.09736" lon="0.38212">
        <ele>78.48</ele>
        <time>2015-06-19T16:27:59Z</time>
      </trkpt>
      <trkpt lat="45.0972" lon="0.38205">
        <ele>78</ele>
        <time>2015-06-19T16:28:10Z</time>
      </trkpt>
      <trkpt lat="45.09707" lon="0.38199">
        <ele>77.04</ele>
        <time>2015-06-19T16:28:19Z</time>
      </trkpt>
      <trkpt lat="45.09703" lon="0.38197">
        <ele>76.08</ele>
        <time>2015-06-19T16:28:22Z</time>
      </trkpt>
      <trkpt lat="45.09699" lon="0.38197">
        <ele>75.12</ele>
        <time>2015-06-19T16:28:26Z</time>
      </trkpt>
      <trkpt lat="45.09686" lon="0.38189">
        <ele>74.64</ele>
        <time>2015-06-19T16:28:36Z</time>
      </trkpt>
      <trkpt lat="45.09675" lon="0.38186">
        <ele>73.68</ele>
        <time>2015-06-19T16:28:49Z</time>
      </trkpt>
      <trkpt lat="45.09668" lon="0.38182">
        <ele>72.24</ele>
        <time>2015-06-19T16:28:55Z</time>
      </trkpt>
      <trkpt lat="45.09651" lon="0.38177">
        <ele>70.79</ele>
        <time>2015-06-19T16:29:09Z</time>
      </trkpt>
      <trkpt lat="45.09637" lon="0.38176">
        <ele>68.87</ele>
        <time>2015-06-19T16:29:23Z</time>
      </trkpt>
      <trkpt lat="45.0962" lon="0.38173">
        <ele>68.39</ele>
        <time>2015-06-19T16:29:36Z</time>
      </trkpt>
      <trkpt lat="45.09617" lon="0.38172">
        <ele>68.39</ele>
        <time>2015-06-19T16:29:39Z</time>
      </trkpt>
      <trkpt lat="45.09604" lon="0.38164">
        <ele>68.39</ele>
        <time>2015-06-19T16:29:51Z</time>
      </trkpt>
      <trkpt lat="45.09594" lon="0.38158">
        <ele>69.35</ele>
        <time>2015-06-19T16:30:02Z</time>
      </trkpt>
      <trkpt lat="45.0959" lon="0.38155">
        <ele>69.83</ele>
        <time>2015-06-19T16:30:11Z</time>
      </trkpt>
      <trkpt lat="45.09586" lon="0.38151">
        <ele>70.31</ele>
        <time>2015-06-19T16:30:15Z</time>
      </trkpt>
      <trkpt lat="45.09573" lon="0.3814">
        <ele>73.68</ele>
        <time>2015-06-19T16:30:29Z</time>
      </trkpt>
      <trkpt lat="45.09571" lon="0.38135">
        <ele>74.64</ele>
        <time>2015-06-19T16:30:34Z</time>
      </trkpt>
      <trkpt lat="45.09569" lon="0.38133">
        <ele>74.64</ele>
        <time>2015-06-19T16:30:36Z</time>
      </trkpt>
      <trkpt lat="45.09564" lon="0.38132">
        <ele>75.12</ele>
        <time>2015-06-19T16:30:41Z</time>
      </trkpt>
      <trkpt lat="45.09555" lon="0.38125">
        <ele>75.6</ele>
        <time>2015-06-19T16:30:51Z</time>
      </trkpt>
      <trkpt lat="45.09552" lon="0.38124">
        <ele>76.08</ele>
        <time>2015-06-19T16:30:55Z</time>
      </trkpt>
      <trkpt lat="45.09544" lon="0.38117">
        <ele>77.04</ele>
        <time>2015-06-19T16:31:09Z</time>
      </trkpt>
      <trkpt lat="45.09545" lon="0.38118">
        <ele>76.56</ele>
        <time>2015-06-19T16:31:13Z</time>
      </trkpt>
      <trkpt lat="45.09574" lon="0.38136">
        <ele>74.64</ele>
        <time>2015-06-19T16:31:29Z</time>
      </trkpt>
      <trkpt lat="45.09579" lon="0.38143">
        <ele>72.72</ele>
        <time>2015-06-19T16:31:42Z</time>
      </trkpt>
      <trkpt lat="45.09579" lon="0.38141">
        <ele>72.72</ele>
        <time>2015-06-19T16:31:53Z</time>
      </trkpt>
      <trkpt lat="45.09571" lon="0.38132">
        <ele>73.68</ele>
        <time>2015-06-19T16:31:59Z</time>
      </trkpt>
      <trkpt lat="45.09546" lon="0.38116">
        <ele>76.56</ele>
        <time>2015-06-19T16:32:10Z</time>
      </trkpt>
      <trkpt lat="45.09533" lon="0.38109">
        <ele>77.52</ele>
        <time>2015-06-19T16:32:15Z</time>
      </trkpt>
      <trkpt lat="45.09511" lon="0.38094">
        <ele>79.45</ele>
        <time>2015-06-19T16:32:25Z</time>
      </trkpt>
      <trkpt lat="45.09505" lon="0.38091">
        <ele>79.93</ele>
        <time>2015-06-19T16:32:28Z</time>
      </trkpt>
      <trkpt lat="45.09497" lon="0.38106">
        <ele>80.41</ele>
        <time>2015-06-19T16:32:41Z</time>
      </trkpt>
      <trkpt lat="45.09489" lon="0.38117">
        <ele>79.93</ele>
        <time>2015-06-19T16:32:51Z</time>
      </trkpt>
      <trkpt lat="45.09497" lon="0.38123">
        <ele>79.93</ele>
        <time>2015-06-19T16:33:07Z</time>
      </trkpt>
      <trkpt lat="45.09497" lon="0.38125">
        <ele>79.93</ele>
        <time>2015-06-19T16:33:30Z</time>
      </trkpt>
      <trkpt lat="45.09496" lon="0.38122">
        <ele>79.93</ele>
        <time>2015-06-19T16:34:02Z</time>
      </trkpt>
      <trkpt lat="45.09497" lon="0.38124">
        <ele>79.93</ele>
        <time>2015-06-19T16:34:12Z</time>
      </trkpt>
      <trkpt lat="45.09499" lon="0.38129">
        <ele>79.93</ele>
        <time>2015-06-19T16:34:29Z</time>
      </trkpt>
      <trkpt lat="45.09498" lon="0.3813">
        <ele>79.45</ele>
        <time>2015-06-19T16:34:52Z</time>
      </trkpt>
      <trkpt lat="45.09494" lon="0.38128">
        <ele>79.45</ele>
        <time>2015-06-19T16:35:19Z</time>
      </trkpt>
      <trkpt lat="45.09496" lon="0.38127">
        <ele>79.45</ele>
        <time>2015-06-19T16:35:46Z</time>
      </trkpt>
      <trkpt lat="45.09495" lon="0.38126">
        <ele>79.45</ele>
        <time>2015-06-19T16:36:21Z</time>
      </trkpt>
      <trkpt lat="45.09495" lon="0.38126">
        <ele>79.45</ele>
        <time>2015-06-19T16:36:48Z</time>
      </trkpt>
      <trkpt lat="45.09496" lon="0.38127">
        <ele>79.45</ele>
        <time>2015-06-19T16:37:21Z</time>
      </trkpt>
      <trkpt lat="45.09495" lon="0.38126">
        <ele>79.45</ele>
        <time>2015-06-19T16:37:42Z</time>
      </trkpt>
      <trkpt lat="45.09496" lon="0.38127">
        <ele>79.45</ele>
        <time>2015-06-19T16:38:19Z</time>
      </trkpt>
      <trkpt lat="45.09507" lon="0.38134">
        <ele>79.45</ele>
        <time>2015-06-19T16:38:20Z</time>
      </trkpt>
      <trkpt lat="45.09493" lon="0.38131">
        <ele>79.45</ele>
        <time>2015-06-19T16:38:50Z</time>
      </trkpt>
      <trkpt lat="45.09492" lon="0.38127">
        <ele>79.93</ele>
        <time>2015-06-19T16:39:19Z</time>
      </trkpt>
      <trkpt lat="45.0949" lon="0.38122">
        <ele>79.93</ele>
        <time>2015-06-19T16:39:28Z</time>
      </trkpt>
      <trkpt lat="45.09494" lon="0.38117">
        <ele>79.93</ele>
        <time>2015-06-19T16:39:42Z</time>
      </trkpt>
      <trkpt lat="45.09495" lon="0.38114">
        <ele>79.93</ele>
        <time>2015-06-19T16:39:45Z</time>
      </trkpt>
      <trkpt lat="45.09496" lon="0.38102">
        <ele>79.93</ele>
        <time>2015-06-19T16:39:52Z</time>
      </trkpt>
      <trkpt lat="45.09502" lon="0.38084">
        <ele>80.89</ele>
        <time>2015-06-19T16:40:04Z</time>
      </trkpt>
      <trkpt lat="45.09505" lon="0.3807">
        <ele>80.89</ele>
        <time>2015-06-19T16:40:13Z</time>
      </trkpt>
      <trkpt lat="45.09505" lon="0.38067">
        <ele>80.89</ele>
        <time>2015-06-19T16:40:15Z</time>
      </trkpt>
      <trkpt lat="45.09504" lon="0.38059">
        <ele>80.89</ele>
        <time>2015-06-19T16:40:20Z</time>
      </trkpt>
      <trkpt lat="45.09511" lon="0.38028">
        <ele>80.89</ele>
        <time>2015-06-19T16:40:38Z</time>
      </trkpt>
      <trkpt lat="45.09518" lon="0.37999">
        <ele>80.89</ele>
        <time>2015-06-19T16:40:55Z</time>
      </trkpt>
      <trkpt lat="45.09524" lon="0.37969">
        <ele>81.37</ele>
        <time>2015-06-19T16:41:13Z</time>
      </trkpt>
      <trkpt lat="45.09524" lon="0.37964">
        <ele>81.37</ele>
        <time>2015-06-19T16:41:16Z</time>
      </trkpt>
      <trkpt lat="45.09526" lon="0.37953">
        <ele>81.37</ele>
        <time>2015-06-19T16:41:22Z</time>
      </trkpt>
      <trkpt lat="45.0953" lon="0.37942">
        <ele>81.37</ele>
        <time>2015-06-19T16:41:29Z</time>
      </trkpt>
      <trkpt lat="45.09531" lon="0.37935">
        <ele>81.37</ele>
        <time>2015-06-19T16:41:34Z</time>
      </trkpt>
      <trkpt lat="45.09536" lon="0.37904">
        <ele>81.37</ele>
        <time>2015-06-19T16:41:53Z</time>
      </trkpt>
      <trkpt lat="45.0954" lon="0.3789">
        <ele>81.85</ele>
        <time>2015-06-19T16:42:01Z</time>
      </trkpt>
      <trkpt lat="45.09546" lon="0.37879">
        <ele>81.85</ele>
        <time>2015-06-19T16:42:09Z</time>
      </trkpt>
      <trkpt lat="45.0955" lon="0.37877">
        <ele>81.85</ele>
        <time>2015-06-19T16:42:13Z</time>
      </trkpt>
      <trkpt lat="45.09548" lon="0.37873">
        <ele>81.85</ele>
        <time>2015-06-19T16:42:16Z</time>
      </trkpt>
      <trkpt lat="45.09546" lon="0.37864">
        <ele>82.33</ele>
        <time>2015-06-19T16:42:22Z</time>
      </trkpt>
      <trkpt lat="45.09552" lon="0.37837">
        <ele>82.81</ele>
        <time>2015-06-19T16:42:40Z</time>
      </trkpt>
      <trkpt lat="45.09552" lon="0.37837">
        <ele>82.81</ele>
        <time>2015-06-19T16:42:42Z</time>
      </trkpt>
      <trkpt lat="45.09556" lon="0.37821">
        <ele>82.81</ele>
        <time>2015-06-19T16:42:53Z</time>
      </trkpt>
      <trkpt lat="45.09559" lon="0.37814">
        <ele>82.81</ele>
        <time>2015-06-19T16:42:58Z</time>
      </trkpt>
      <trkpt lat="45.09563" lon="0.37792">
        <ele>82.81</ele>
        <time>2015-06-19T16:43:12Z</time>
      </trkpt>
      <trkpt lat="45.0957" lon="0.37768">
        <ele>82.81</ele>
        <time>2015-06-19T16:43:28Z</time>
      </trkpt>
      <trkpt lat="45.0958" lon="0.37737">
        <ele>82.33</ele>
        <time>2015-06-19T16:43:46Z</time>
      </trkpt>
      <trkpt lat="45.0959" lon="0.37708">
        <ele>82.81</ele>
        <time>2015-06-19T16:44:06Z</time>
      </trkpt>
      <trkpt lat="45.0959" lon="0.37704">
        <ele>82.81</ele>
        <time>2015-06-19T16:44:20Z</time>
      </trkpt>
      <trkpt lat="45.0959" lon="0.37704">
        <ele>82.81</ele>
        <time>2015-06-19T16:44:29Z</time>
      </trkpt>
      <trkpt lat="45.0959" lon="0.37703">
        <ele>81.37</ele>
        <time>2015-06-19T16:44:46Z</time>
      </trkpt>
      <trkpt lat="45.09591" lon="0.37705">
        <ele>81.37</ele>
        <time>2015-06-19T16:45:09Z</time>
      </trkpt>
      <trkpt lat="45.09592" lon="0.37705">
        <ele>82.33</ele>
        <time>2015-06-19T16:45:13Z</time>
      </trkpt>
      <trkpt lat="45.09592" lon="0.37704">
        <ele>80.89</ele>
        <time>2015-06-19T16:45:15Z</time>
      </trkpt>
      <trkpt lat="45.09592" lon="0.37704">
        <ele>81.37</ele>
        <time>2015-06-19T16:45:29Z</time>
      </trkpt>
      <trkpt lat="45.09592" lon="0.37705">
        <ele>81.37</ele>
        <time>2015-06-19T16:45:47Z</time>
      </trkpt>
      <trkpt lat="45.09591" lon="0.37709">
        <ele>81.37</ele>
        <time>2015-06-19T16:46:03Z</time>
      </trkpt>
      <trkpt lat="45.09588" lon="0.37721">
        <ele>82.81</ele>
        <time>2015-06-19T16:46:10Z</time>
      </trkpt>
      <trkpt lat="45.09581" lon="0.37749">
        <ele>83.29</ele>
        <time>2015-06-19T16:46:28Z</time>
      </trkpt>
      <trkpt lat="45.09569" lon="0.37781">
        <ele>83.29</ele>
        <time>2015-06-19T16:46:47Z</time>
      </trkpt>
      <trkpt lat="45.09562" lon="0.37807">
        <ele>82.81</ele>
        <time>2015-06-19T16:47:02Z</time>
      </trkpt>
      <trkpt lat="45.09557" lon="0.3783">
        <ele>81.85</ele>
        <time>2015-06-19T16:47:16Z</time>
      </trkpt>
      <trkpt lat="45.09554" lon="0.37853">
        <ele>81.85</ele>
        <time>2015-06-19T16:47:29Z</time>
      </trkpt>
      <trkpt lat="45.09548" lon="0.37872">
        <ele>81.85</ele>
        <time>2015-06-19T16:47:41Z</time>
      </trkpt>
      <trkpt lat="45.09542" lon="0.37895">
        <ele>81.37</ele>
        <time>2015-06-19T16:47:54Z</time>
      </trkpt>
      <trkpt lat="45.09536" lon="0.37917">
        <ele>81.37</ele>
        <time>2015-06-19T16:48:07Z</time>
      </trkpt>
      <trkpt lat="45.09532" lon="0.37945">
        <ele>81.37</ele>
        <time>2015-06-19T16:48:24Z</time>
      </trkpt>
      <trkpt lat="45.09527" lon="0.37966">
        <ele>80.89</ele>
        <time>2015-06-19T16:48:37Z</time>
      </trkpt>
      <trkpt lat="45.09522" lon="0.37987">
        <ele>80.89</ele>
        <time>2015-06-19T16:48:51Z</time>
      </trkpt>
      <trkpt lat="45.0952" lon="0.37998">
        <ele>80.89</ele>
        <time>2015-06-19T16:48:58Z</time>
      </trkpt>
      <trkpt lat="45.09516" lon="0.38025">
        <ele>80.41</ele>
        <time>2015-06-19T16:49:13Z</time>
      </trkpt>
      <trkpt lat="45.09514" lon="0.38034">
        <ele>79.93</ele>
        <time>2015-06-19T16:49:19Z</time>
      </trkpt>
      <trkpt lat="45.09512" lon="0.38045">
        <ele>79.93</ele>
        <time>2015-06-19T16:49:31Z</time>
      </trkpt>
      <trkpt lat="45.09512" lon="0.38049">
        <ele>79.93</ele>
        <time>2015-06-19T16:49:42Z</time>
      </trkpt>
      <trkpt lat="45.0951" lon="0.38053">
        <ele>79.45</ele>
        <time>2015-06-19T16:49:51Z</time>
      </trkpt>
      <trkpt lat="45.09508" lon="0.38067">
        <ele>79.45</ele>
        <time>2015-06-19T16:50:00Z</time>
      </trkpt>
      <trkpt lat="45.09512" lon="0.38071">
        <ele>79.45</ele>
        <time>2015-06-19T16:50:04Z</time>
      </trkpt>
      <trkpt lat="45.09516" lon="0.38077">
        <ele>79.45</ele>
        <time>2015-06-19T16:50:16Z</time>
      </trkpt>
      <trkpt lat="45.09517" lon="0.38077">
        <ele>79.45</ele>
        <time>2015-06-19T16:50:29Z</time>
      </trkpt>
      <trkpt lat="45.09516" lon="0.38074">
        <ele>79.45</ele>
        <time>2015-06-19T16:50:38Z</time>
      </trkpt>
    </trkseg>
  </trk>
</gpx>